<?xml version="1.0" encoding="UTF-8" standalone="no" ?>
<gpx xmlns="http://www.topografix.com/GPX/1/1" xmlns:xsi="http://www.w3.org/2001/XMLSchema-instance" xsi:schemaLocation="http://www.topografix.com/GPX/1/1 http://www.topografix.com/GPX/1/1/gpx.xsd" version="1.1" creator="VisuGPX - https://www.visugpx.com">
  <metadata>
    <name>Le sentier René Roche</name>
    <desc><![CDATA[ Au départ de Coudon le chemin est mal balisé,ensuite on marche au milieu de la garrigue avec de fabuleux rochers ,on peut continuer jusqu?aux capitelles un bel aller et retour.
]]></desc>
  </metadata>
  <trk>
    <name><![CDATA[SENPIER RENE ROCHE]]></name>
    <trkseg>
      <trkpt lat="44.41826" lon="4.21791">
        <ele>220.76</ele>
        <time>2016-09-26T11:43:58Z</time>
      </trkpt>
      <trkpt lat="44.41828" lon="4.21792">
        <ele>220.76</ele>
        <time>2016-09-26T11:44:16Z</time>
      </trkpt>
      <trkpt lat="44.41827" lon="4.21792">
        <ele>221.24</ele>
        <time>2016-09-26T11:44:43Z</time>
      </trkpt>
      <trkpt lat="44.41825" lon="4.21791">
        <ele>221.24</ele>
        <time>2016-09-26T11:44:56Z</time>
      </trkpt>
      <trkpt lat="44.41822" lon="4.2179">
        <ele>221.24</ele>
        <time>2016-09-26T11:45:15Z</time>
      </trkpt>
      <trkpt lat="44.41814" lon="4.21793">
        <ele>221.72</ele>
        <time>2016-09-26T11:45:29Z</time>
      </trkpt>
      <trkpt lat="44.41806" lon="4.21791">
        <ele>221.24</ele>
        <time>2016-09-26T11:45:40Z</time>
      </trkpt>
      <trkpt lat="44.41803" lon="4.21791">
        <ele>221.72</ele>
        <time>2016-09-26T11:45:59Z</time>
      </trkpt>
      <trkpt lat="44.41796" lon="4.2179">
        <ele>221.24</ele>
        <time>2016-09-26T11:46:12Z</time>
      </trkpt>
      <trkpt lat="44.41785" lon="4.21789">
        <ele>221.24</ele>
        <time>2016-09-26T11:46:28Z</time>
      </trkpt>
      <trkpt lat="44.41783" lon="4.21788">
        <ele>221.72</ele>
        <time>2016-09-26T11:46:32Z</time>
      </trkpt>
      <trkpt lat="44.41771" lon="4.21787">
        <ele>221.24</ele>
        <time>2016-09-26T11:46:46Z</time>
      </trkpt>
      <trkpt lat="44.41761" lon="4.21788">
        <ele>221.72</ele>
        <time>2016-09-26T11:47:01Z</time>
      </trkpt>
      <trkpt lat="44.4176" lon="4.21789">
        <ele>221.24</ele>
        <time>2016-09-26T11:47:18Z</time>
      </trkpt>
      <trkpt lat="44.41752" lon="4.21789">
        <ele>221.72</ele>
        <time>2016-09-26T11:47:31Z</time>
      </trkpt>
      <trkpt lat="44.4174" lon="4.21785">
        <ele>222.68</ele>
        <time>2016-09-26T11:47:45Z</time>
      </trkpt>
      <trkpt lat="44.41727" lon="4.21787">
        <ele>222.68</ele>
        <time>2016-09-26T11:47:58Z</time>
      </trkpt>
      <trkpt lat="44.4172" lon="4.21786">
        <ele>222.2</ele>
        <time>2016-09-26T11:48:07Z</time>
      </trkpt>
      <trkpt lat="44.41717" lon="4.21786">
        <ele>222.68</ele>
        <time>2016-09-26T11:48:09Z</time>
      </trkpt>
      <trkpt lat="44.4171" lon="4.21783">
        <ele>223.16</ele>
        <time>2016-09-26T11:48:21Z</time>
      </trkpt>
      <trkpt lat="44.41708" lon="4.2178">
        <ele>224.12</ele>
        <time>2016-09-26T11:48:37Z</time>
      </trkpt>
      <trkpt lat="44.41706" lon="4.21769">
        <ele>226.05</ele>
        <time>2016-09-26T11:48:49Z</time>
      </trkpt>
      <trkpt lat="44.41705" lon="4.21758">
        <ele>227.49</ele>
        <time>2016-09-26T11:49:01Z</time>
      </trkpt>
      <trkpt lat="44.41698" lon="4.21749">
        <ele>228.45</ele>
        <time>2016-09-26T11:49:14Z</time>
      </trkpt>
      <trkpt lat="44.41696" lon="4.21745">
        <ele>228.93</ele>
        <time>2016-09-26T11:49:17Z</time>
      </trkpt>
      <trkpt lat="44.41692" lon="4.21739">
        <ele>228.93</ele>
        <time>2016-09-26T11:49:21Z</time>
      </trkpt>
      <trkpt lat="44.41689" lon="4.21736">
        <ele>229.41</ele>
        <time>2016-09-26T11:49:25Z</time>
      </trkpt>
      <trkpt lat="44.41678" lon="4.21726">
        <ele>230.37</ele>
        <time>2016-09-26T11:49:39Z</time>
      </trkpt>
      <trkpt lat="44.41671" lon="4.21713">
        <ele>232.3</ele>
        <time>2016-09-26T11:49:52Z</time>
      </trkpt>
      <trkpt lat="44.41662" lon="4.21703">
        <ele>234.22</ele>
        <time>2016-09-26T11:50:09Z</time>
      </trkpt>
      <trkpt lat="44.41659" lon="4.21689">
        <ele>236.14</ele>
        <time>2016-09-26T11:50:24Z</time>
      </trkpt>
      <trkpt lat="44.41654" lon="4.2168">
        <ele>239.02</ele>
        <time>2016-09-26T11:50:40Z</time>
      </trkpt>
      <trkpt lat="44.41651" lon="4.21674">
        <ele>240.47</ele>
        <time>2016-09-26T11:50:53Z</time>
      </trkpt>
      <trkpt lat="44.41643" lon="4.21667">
        <ele>242.39</ele>
        <time>2016-09-26T11:51:05Z</time>
      </trkpt>
      <trkpt lat="44.41633" lon="4.21658">
        <ele>243.35</ele>
        <time>2016-09-26T11:51:19Z</time>
      </trkpt>
      <trkpt lat="44.41623" lon="4.21654">
        <ele>243.83</ele>
        <time>2016-09-26T11:51:30Z</time>
      </trkpt>
      <trkpt lat="44.41622" lon="4.21654">
        <ele>243.83</ele>
        <time>2016-09-26T11:51:32Z</time>
      </trkpt>
      <trkpt lat="44.41607" lon="4.21647">
        <ele>244.79</ele>
        <time>2016-09-26T11:51:46Z</time>
      </trkpt>
      <trkpt lat="44.41599" lon="4.21646">
        <ele>244.79</ele>
        <time>2016-09-26T11:51:58Z</time>
      </trkpt>
      <trkpt lat="44.41599" lon="4.21638">
        <ele>245.27</ele>
        <time>2016-09-26T11:52:09Z</time>
      </trkpt>
      <trkpt lat="44.416" lon="4.21626">
        <ele>245.75</ele>
        <time>2016-09-26T11:52:22Z</time>
      </trkpt>
      <trkpt lat="44.41599" lon="4.21611">
        <ele>245.75</ele>
        <time>2016-09-26T11:52:36Z</time>
      </trkpt>
      <trkpt lat="44.416" lon="4.21597">
        <ele>245.75</ele>
        <time>2016-09-26T11:52:50Z</time>
      </trkpt>
      <trkpt lat="44.416" lon="4.21589">
        <ele>245.75</ele>
        <time>2016-09-26T11:53:02Z</time>
      </trkpt>
      <trkpt lat="44.41599" lon="4.21574">
        <ele>244.79</ele>
        <time>2016-09-26T11:53:15Z</time>
      </trkpt>
      <trkpt lat="44.41597" lon="4.21558">
        <ele>244.31</ele>
        <time>2016-09-26T11:53:27Z</time>
      </trkpt>
      <trkpt lat="44.41593" lon="4.21542">
        <ele>244.79</ele>
        <time>2016-09-26T11:53:40Z</time>
      </trkpt>
      <trkpt lat="44.41587" lon="4.21537">
        <ele>245.27</ele>
        <time>2016-09-26T11:53:53Z</time>
      </trkpt>
      <trkpt lat="44.41579" lon="4.21533">
        <ele>246.23</ele>
        <time>2016-09-26T11:54:05Z</time>
      </trkpt>
      <trkpt lat="44.41564" lon="4.21528">
        <ele>246.23</ele>
        <time>2016-09-26T11:54:18Z</time>
      </trkpt>
      <trkpt lat="44.4156" lon="4.21522">
        <ele>246.72</ele>
        <time>2016-09-26T11:54:32Z</time>
      </trkpt>
      <trkpt lat="44.41557" lon="4.2151">
        <ele>247.2</ele>
        <time>2016-09-26T11:54:43Z</time>
      </trkpt>
      <trkpt lat="44.41558" lon="4.21503">
        <ele>247.2</ele>
        <time>2016-09-26T11:54:48Z</time>
      </trkpt>
      <trkpt lat="44.41559" lon="4.21484">
        <ele>248.16</ele>
        <time>2016-09-26T11:55:02Z</time>
      </trkpt>
      <trkpt lat="44.41559" lon="4.2148">
        <ele>248.16</ele>
        <time>2016-09-26T11:55:06Z</time>
      </trkpt>
      <trkpt lat="44.4156" lon="4.21475">
        <ele>248.64</ele>
        <time>2016-09-26T11:55:10Z</time>
      </trkpt>
      <trkpt lat="44.41565" lon="4.21458">
        <ele>249.6</ele>
        <time>2016-09-26T11:55:24Z</time>
      </trkpt>
      <trkpt lat="44.41569" lon="4.21442">
        <ele>249.6</ele>
        <time>2016-09-26T11:55:38Z</time>
      </trkpt>
      <trkpt lat="44.41569" lon="4.2144">
        <ele>249.6</ele>
        <time>2016-09-26T11:55:40Z</time>
      </trkpt>
      <trkpt lat="44.4157" lon="4.21426">
        <ele>249.6</ele>
        <time>2016-09-26T11:55:55Z</time>
      </trkpt>
      <trkpt lat="44.41572" lon="4.2142">
        <ele>249.6</ele>
        <time>2016-09-26T11:56:14Z</time>
      </trkpt>
      <trkpt lat="44.41573" lon="4.21417">
        <ele>250.08</ele>
        <time>2016-09-26T11:56:17Z</time>
      </trkpt>
      <trkpt lat="44.4157" lon="4.21408">
        <ele>249.6</ele>
        <time>2016-09-26T11:56:32Z</time>
      </trkpt>
      <trkpt lat="44.41568" lon="4.21408">
        <ele>249.6</ele>
        <time>2016-09-26T11:56:52Z</time>
      </trkpt>
      <trkpt lat="44.41566" lon="4.21408">
        <ele>250.08</ele>
        <time>2016-09-26T11:57:21Z</time>
      </trkpt>
      <trkpt lat="44.41565" lon="4.21408">
        <ele>250.08</ele>
        <time>2016-09-26T11:57:56Z</time>
      </trkpt>
      <trkpt lat="44.41567" lon="4.21405">
        <ele>249.6</ele>
        <time>2016-09-26T11:58:10Z</time>
      </trkpt>
      <trkpt lat="44.41568" lon="4.21402">
        <ele>250.08</ele>
        <time>2016-09-26T11:58:47Z</time>
      </trkpt>
      <trkpt lat="44.41569" lon="4.21402">
        <ele>250.08</ele>
        <time>2016-09-26T11:59:10Z</time>
      </trkpt>
      <trkpt lat="44.41567" lon="4.21402">
        <ele>250.08</ele>
        <time>2016-09-26T11:59:27Z</time>
      </trkpt>
      <trkpt lat="44.41568" lon="4.21402">
        <ele>250.08</ele>
        <time>2016-09-26T12:00:00Z</time>
      </trkpt>
      <trkpt lat="44.41567" lon="4.21401">
        <ele>250.08</ele>
        <time>2016-09-26T12:00:35Z</time>
      </trkpt>
      <trkpt lat="44.41568" lon="4.21401">
        <ele>250.08</ele>
        <time>2016-09-26T12:01:05Z</time>
      </trkpt>
      <trkpt lat="44.41566" lon="4.21401">
        <ele>250.08</ele>
        <time>2016-09-26T12:01:47Z</time>
      </trkpt>
      <trkpt lat="44.41566" lon="4.214">
        <ele>250.08</ele>
        <time>2016-09-26T12:01:56Z</time>
      </trkpt>
      <trkpt lat="44.41564" lon="4.21397">
        <ele>250.08</ele>
        <time>2016-09-26T12:02:00Z</time>
      </trkpt>
      <trkpt lat="44.41552" lon="4.21381">
        <ele>250.08</ele>
        <time>2016-09-26T12:02:16Z</time>
      </trkpt>
      <trkpt lat="44.41551" lon="4.21379">
        <ele>250.08</ele>
        <time>2016-09-26T12:02:18Z</time>
      </trkpt>
      <trkpt lat="44.41547" lon="4.2137">
        <ele>250.56</ele>
        <time>2016-09-26T12:02:26Z</time>
      </trkpt>
      <trkpt lat="44.41544" lon="4.21365">
        <ele>251.52</ele>
        <time>2016-09-26T12:02:31Z</time>
      </trkpt>
      <trkpt lat="44.41542" lon="4.21362">
        <ele>251.52</ele>
        <time>2016-09-26T12:02:33Z</time>
      </trkpt>
      <trkpt lat="44.41538" lon="4.21356">
        <ele>252.48</ele>
        <time>2016-09-26T12:02:49Z</time>
      </trkpt>
      <trkpt lat="44.41536" lon="4.21352">
        <ele>252.48</ele>
        <time>2016-09-26T12:02:57Z</time>
      </trkpt>
      <trkpt lat="44.41533" lon="4.21349">
        <ele>252.96</ele>
        <time>2016-09-26T12:03:01Z</time>
      </trkpt>
      <trkpt lat="44.41532" lon="4.21347">
        <ele>252.96</ele>
        <time>2016-09-26T12:03:03Z</time>
      </trkpt>
      <trkpt lat="44.41524" lon="4.21333">
        <ele>253.93</ele>
        <time>2016-09-26T12:03:16Z</time>
      </trkpt>
      <trkpt lat="44.41519" lon="4.21321">
        <ele>254.41</ele>
        <time>2016-09-26T12:03:25Z</time>
      </trkpt>
      <trkpt lat="44.41519" lon="4.21317">
        <ele>254.41</ele>
        <time>2016-09-26T12:03:27Z</time>
      </trkpt>
      <trkpt lat="44.41518" lon="4.21304">
        <ele>254.89</ele>
        <time>2016-09-26T12:03:36Z</time>
      </trkpt>
      <trkpt lat="44.41517" lon="4.21286">
        <ele>254.89</ele>
        <time>2016-09-26T12:03:50Z</time>
      </trkpt>
      <trkpt lat="44.41511" lon="4.21272">
        <ele>254.41</ele>
        <time>2016-09-26T12:04:02Z</time>
      </trkpt>
      <trkpt lat="44.41505" lon="4.21263">
        <ele>253.93</ele>
        <time>2016-09-26T12:04:13Z</time>
      </trkpt>
      <trkpt lat="44.41495" lon="4.21246">
        <ele>253.44</ele>
        <time>2016-09-26T12:04:28Z</time>
      </trkpt>
      <trkpt lat="44.41483" lon="4.21228">
        <ele>252.96</ele>
        <time>2016-09-26T12:04:44Z</time>
      </trkpt>
      <trkpt lat="44.41478" lon="4.21218">
        <ele>252.48</ele>
        <time>2016-09-26T12:04:57Z</time>
      </trkpt>
      <trkpt lat="44.41478" lon="4.21216">
        <ele>252.48</ele>
        <time>2016-09-26T12:05:14Z</time>
      </trkpt>
      <trkpt lat="44.41478" lon="4.21214">
        <ele>252.96</ele>
        <time>2016-09-26T12:05:28Z</time>
      </trkpt>
      <trkpt lat="44.41477" lon="4.21214">
        <ele>252.96</ele>
        <time>2016-09-26T12:05:55Z</time>
      </trkpt>
      <trkpt lat="44.41477" lon="4.21213">
        <ele>252.48</ele>
        <time>2016-09-26T12:06:19Z</time>
      </trkpt>
      <trkpt lat="44.41481" lon="4.21204">
        <ele>251.52</ele>
        <time>2016-09-26T12:06:31Z</time>
      </trkpt>
      <trkpt lat="44.41483" lon="4.21188">
        <ele>250.08</ele>
        <time>2016-09-26T12:06:45Z</time>
      </trkpt>
      <trkpt lat="44.41484" lon="4.2118">
        <ele>249.12</ele>
        <time>2016-09-26T12:06:56Z</time>
      </trkpt>
      <trkpt lat="44.41487" lon="4.21172">
        <ele>248.16</ele>
        <time>2016-09-26T12:07:19Z</time>
      </trkpt>
      <trkpt lat="44.41489" lon="4.21166">
        <ele>247.2</ele>
        <time>2016-09-26T12:07:34Z</time>
      </trkpt>
      <trkpt lat="44.4149" lon="4.2116">
        <ele>246.72</ele>
        <time>2016-09-26T12:07:57Z</time>
      </trkpt>
      <trkpt lat="44.41492" lon="4.21147">
        <ele>244.31</ele>
        <time>2016-09-26T12:08:10Z</time>
      </trkpt>
      <trkpt lat="44.41496" lon="4.21137">
        <ele>241.91</ele>
        <time>2016-09-26T12:08:25Z</time>
      </trkpt>
      <trkpt lat="44.41495" lon="4.21122">
        <ele>240.47</ele>
        <time>2016-09-26T12:08:37Z</time>
      </trkpt>
      <trkpt lat="44.41493" lon="4.21115">
        <ele>239.51</ele>
        <time>2016-09-26T12:08:50Z</time>
      </trkpt>
      <trkpt lat="44.41489" lon="4.21107">
        <ele>237.58</ele>
        <time>2016-09-26T12:09:02Z</time>
      </trkpt>
      <trkpt lat="44.41489" lon="4.21105">
        <ele>237.58</ele>
        <time>2016-09-26T12:09:04Z</time>
      </trkpt>
      <trkpt lat="44.41488" lon="4.21094">
        <ele>235.18</ele>
        <time>2016-09-26T12:09:16Z</time>
      </trkpt>
      <trkpt lat="44.41489" lon="4.21088">
        <ele>233.26</ele>
        <time>2016-09-26T12:09:29Z</time>
      </trkpt>
      <trkpt lat="44.41492" lon="4.2108">
        <ele>231.33</ele>
        <time>2016-09-26T12:09:42Z</time>
      </trkpt>
      <trkpt lat="44.41493" lon="4.21065">
        <ele>230.37</ele>
        <time>2016-09-26T12:09:54Z</time>
      </trkpt>
      <trkpt lat="44.41492" lon="4.21058">
        <ele>229.41</ele>
        <time>2016-09-26T12:10:06Z</time>
      </trkpt>
      <trkpt lat="44.41494" lon="4.21054">
        <ele>228.45</ele>
        <time>2016-09-26T12:10:17Z</time>
      </trkpt>
      <trkpt lat="44.41499" lon="4.21048">
        <ele>227.01</ele>
        <time>2016-09-26T12:10:28Z</time>
      </trkpt>
      <trkpt lat="44.415" lon="4.21036">
        <ele>226.53</ele>
        <time>2016-09-26T12:10:40Z</time>
      </trkpt>
      <trkpt lat="44.41499" lon="4.21029">
        <ele>225.57</ele>
        <time>2016-09-26T12:10:52Z</time>
      </trkpt>
      <trkpt lat="44.41501" lon="4.21025">
        <ele>224.61</ele>
        <time>2016-09-26T12:11:03Z</time>
      </trkpt>
      <trkpt lat="44.41502" lon="4.21023">
        <ele>224.12</ele>
        <time>2016-09-26T12:11:15Z</time>
      </trkpt>
      <trkpt lat="44.41507" lon="4.2102">
        <ele>223.16</ele>
        <time>2016-09-26T12:11:26Z</time>
      </trkpt>
      <trkpt lat="44.41509" lon="4.21017">
        <ele>222.68</ele>
        <time>2016-09-26T12:11:37Z</time>
      </trkpt>
      <trkpt lat="44.41518" lon="4.2101">
        <ele>222.2</ele>
        <time>2016-09-26T12:11:49Z</time>
      </trkpt>
      <trkpt lat="44.41522" lon="4.21007">
        <ele>222.2</ele>
        <time>2016-09-26T12:11:53Z</time>
      </trkpt>
      <trkpt lat="44.41531" lon="4.20999">
        <ele>222.2</ele>
        <time>2016-09-26T12:12:05Z</time>
      </trkpt>
      <trkpt lat="44.41533" lon="4.20988">
        <ele>222.2</ele>
        <time>2016-09-26T12:12:16Z</time>
      </trkpt>
      <trkpt lat="44.41535" lon="4.20982">
        <ele>222.68</ele>
        <time>2016-09-26T12:12:23Z</time>
      </trkpt>
      <trkpt lat="44.41539" lon="4.20974">
        <ele>222.68</ele>
        <time>2016-09-26T12:12:34Z</time>
      </trkpt>
      <trkpt lat="44.4154" lon="4.20974">
        <ele>222.68</ele>
        <time>2016-09-26T12:12:35Z</time>
      </trkpt>
      <trkpt lat="44.41541" lon="4.20973">
        <ele>223.16</ele>
        <time>2016-09-26T12:12:37Z</time>
      </trkpt>
      <trkpt lat="44.41547" lon="4.20966">
        <ele>223.64</ele>
        <time>2016-09-26T12:12:50Z</time>
      </trkpt>
      <trkpt lat="44.41546" lon="4.20957">
        <ele>223.64</ele>
        <time>2016-09-26T12:13:01Z</time>
      </trkpt>
      <trkpt lat="44.41545" lon="4.20949">
        <ele>224.12</ele>
        <time>2016-09-26T12:13:27Z</time>
      </trkpt>
      <trkpt lat="44.41545" lon="4.20942">
        <ele>224.12</ele>
        <time>2016-09-26T12:13:39Z</time>
      </trkpt>
      <trkpt lat="44.41545" lon="4.20941">
        <ele>224.12</ele>
        <time>2016-09-26T12:13:51Z</time>
      </trkpt>
      <trkpt lat="44.41547" lon="4.20936">
        <ele>224.12</ele>
        <time>2016-09-26T12:14:08Z</time>
      </trkpt>
      <trkpt lat="44.41549" lon="4.20931">
        <ele>224.12</ele>
        <time>2016-09-26T12:14:23Z</time>
      </trkpt>
      <trkpt lat="44.4155" lon="4.20929">
        <ele>224.12</ele>
        <time>2016-09-26T12:14:40Z</time>
      </trkpt>
      <trkpt lat="44.41552" lon="4.20922">
        <ele>225.09</ele>
        <time>2016-09-26T12:14:55Z</time>
      </trkpt>
      <trkpt lat="44.41555" lon="4.20916">
        <ele>225.09</ele>
        <time>2016-09-26T12:15:06Z</time>
      </trkpt>
      <trkpt lat="44.41557" lon="4.20914">
        <ele>225.57</ele>
        <time>2016-09-26T12:15:19Z</time>
      </trkpt>
      <trkpt lat="44.41561" lon="4.20907">
        <ele>225.57</ele>
        <time>2016-09-26T12:15:35Z</time>
      </trkpt>
      <trkpt lat="44.41568" lon="4.20896">
        <ele>225.57</ele>
        <time>2016-09-26T12:15:48Z</time>
      </trkpt>
      <trkpt lat="44.41577" lon="4.20887">
        <ele>226.05</ele>
        <time>2016-09-26T12:16:01Z</time>
      </trkpt>
      <trkpt lat="44.41584" lon="4.20876">
        <ele>227.01</ele>
        <time>2016-09-26T12:16:14Z</time>
      </trkpt>
      <trkpt lat="44.41589" lon="4.20873">
        <ele>227.49</ele>
        <time>2016-09-26T12:16:22Z</time>
      </trkpt>
      <trkpt lat="44.41597" lon="4.20872">
        <ele>227.97</ele>
        <time>2016-09-26T12:16:33Z</time>
      </trkpt>
      <trkpt lat="44.41608" lon="4.20869">
        <ele>230.37</ele>
        <time>2016-09-26T12:16:47Z</time>
      </trkpt>
      <trkpt lat="44.41613" lon="4.20869">
        <ele>231.33</ele>
        <time>2016-09-26T12:16:57Z</time>
      </trkpt>
      <trkpt lat="44.41618" lon="4.20867">
        <ele>232.3</ele>
        <time>2016-09-26T12:17:08Z</time>
      </trkpt>
      <trkpt lat="44.41621" lon="4.20864">
        <ele>233.26</ele>
        <time>2016-09-26T12:17:15Z</time>
      </trkpt>
      <trkpt lat="44.4163" lon="4.2086">
        <ele>234.22</ele>
        <time>2016-09-26T12:17:27Z</time>
      </trkpt>
      <trkpt lat="44.41634" lon="4.20857">
        <ele>234.22</ele>
        <time>2016-09-26T12:17:32Z</time>
      </trkpt>
      <trkpt lat="44.41642" lon="4.20849">
        <ele>235.18</ele>
        <time>2016-09-26T12:17:44Z</time>
      </trkpt>
      <trkpt lat="44.41645" lon="4.20835">
        <ele>236.62</ele>
        <time>2016-09-26T12:17:57Z</time>
      </trkpt>
      <trkpt lat="44.41649" lon="4.20831">
        <ele>237.1</ele>
        <time>2016-09-26T12:18:04Z</time>
      </trkpt>
      <trkpt lat="44.41656" lon="4.20824">
        <ele>238.06</ele>
        <time>2016-09-26T12:18:14Z</time>
      </trkpt>
      <trkpt lat="44.41657" lon="4.20823">
        <ele>238.06</ele>
        <time>2016-09-26T12:18:17Z</time>
      </trkpt>
      <trkpt lat="44.41662" lon="4.2082">
        <ele>238.06</ele>
        <time>2016-09-26T12:18:23Z</time>
      </trkpt>
      <trkpt lat="44.41669" lon="4.20813">
        <ele>238.06</ele>
        <time>2016-09-26T12:18:35Z</time>
      </trkpt>
      <trkpt lat="44.41671" lon="4.20807">
        <ele>237.58</ele>
        <time>2016-09-26T12:18:45Z</time>
      </trkpt>
      <trkpt lat="44.41677" lon="4.20795">
        <ele>237.58</ele>
        <time>2016-09-26T12:18:59Z</time>
      </trkpt>
      <trkpt lat="44.4168" lon="4.20786">
        <ele>236.62</ele>
        <time>2016-09-26T12:19:07Z</time>
      </trkpt>
      <trkpt lat="44.41683" lon="4.20774">
        <ele>237.1</ele>
        <time>2016-09-26T12:19:19Z</time>
      </trkpt>
      <trkpt lat="44.41689" lon="4.20762">
        <ele>237.1</ele>
        <time>2016-09-26T12:19:30Z</time>
      </trkpt>
      <trkpt lat="44.41695" lon="4.20746">
        <ele>238.54</ele>
        <time>2016-09-26T12:19:43Z</time>
      </trkpt>
      <trkpt lat="44.417" lon="4.20732">
        <ele>239.51</ele>
        <time>2016-09-26T12:19:55Z</time>
      </trkpt>
      <trkpt lat="44.41706" lon="4.20718">
        <ele>239.51</ele>
        <time>2016-09-26T12:20:06Z</time>
      </trkpt>
      <trkpt lat="44.41713" lon="4.2071">
        <ele>239.51</ele>
        <time>2016-09-26T12:20:15Z</time>
      </trkpt>
      <trkpt lat="44.41716" lon="4.20709">
        <ele>239.51</ele>
        <time>2016-09-26T12:20:17Z</time>
      </trkpt>
      <trkpt lat="44.41719" lon="4.20708">
        <ele>239.51</ele>
        <time>2016-09-26T12:20:21Z</time>
      </trkpt>
      <trkpt lat="44.41723" lon="4.20707">
        <ele>239.02</ele>
        <time>2016-09-26T12:20:32Z</time>
      </trkpt>
      <trkpt lat="44.41728" lon="4.20714">
        <ele>238.54</ele>
        <time>2016-09-26T12:20:45Z</time>
      </trkpt>
      <trkpt lat="44.4174" lon="4.2072">
        <ele>238.54</ele>
        <time>2016-09-26T12:20:57Z</time>
      </trkpt>
      <trkpt lat="44.41752" lon="4.20723">
        <ele>239.02</ele>
        <time>2016-09-26T12:21:10Z</time>
      </trkpt>
      <trkpt lat="44.41755" lon="4.20722">
        <ele>239.02</ele>
        <time>2016-09-26T12:21:21Z</time>
      </trkpt>
      <trkpt lat="44.41759" lon="4.20723">
        <ele>239.51</ele>
        <time>2016-09-26T12:21:40Z</time>
      </trkpt>
      <trkpt lat="44.41762" lon="4.20724">
        <ele>239.51</ele>
        <time>2016-09-26T12:22:04Z</time>
      </trkpt>
      <trkpt lat="44.41767" lon="4.20725">
        <ele>239.99</ele>
        <time>2016-09-26T12:22:19Z</time>
      </trkpt>
      <trkpt lat="44.41773" lon="4.20724">
        <ele>240.47</ele>
        <time>2016-09-26T12:22:34Z</time>
      </trkpt>
      <trkpt lat="44.41779" lon="4.2072">
        <ele>240.95</ele>
        <time>2016-09-26T12:22:45Z</time>
      </trkpt>
      <trkpt lat="44.41789" lon="4.20714">
        <ele>241.43</ele>
        <time>2016-09-26T12:22:57Z</time>
      </trkpt>
      <trkpt lat="44.41798" lon="4.2071">
        <ele>242.39</ele>
        <time>2016-09-26T12:23:09Z</time>
      </trkpt>
      <trkpt lat="44.41803" lon="4.20706">
        <ele>242.87</ele>
        <time>2016-09-26T12:23:22Z</time>
      </trkpt>
      <trkpt lat="44.41807" lon="4.20698">
        <ele>242.87</ele>
        <time>2016-09-26T12:23:33Z</time>
      </trkpt>
      <trkpt lat="44.41811" lon="4.20687">
        <ele>243.83</ele>
        <time>2016-09-26T12:23:44Z</time>
      </trkpt>
      <trkpt lat="44.41814" lon="4.20676">
        <ele>243.83</ele>
        <time>2016-09-26T12:23:56Z</time>
      </trkpt>
      <trkpt lat="44.41816" lon="4.20662">
        <ele>244.79</ele>
        <time>2016-09-26T12:24:10Z</time>
      </trkpt>
      <trkpt lat="44.41819" lon="4.20647">
        <ele>245.27</ele>
        <time>2016-09-26T12:24:22Z</time>
      </trkpt>
      <trkpt lat="44.41822" lon="4.20642">
        <ele>244.79</ele>
        <time>2016-09-26T12:24:28Z</time>
      </trkpt>
      <trkpt lat="44.41829" lon="4.2063">
        <ele>245.27</ele>
        <time>2016-09-26T12:24:41Z</time>
      </trkpt>
      <trkpt lat="44.4183" lon="4.20627">
        <ele>245.27</ele>
        <time>2016-09-26T12:24:43Z</time>
      </trkpt>
      <trkpt lat="44.41833" lon="4.20624">
        <ele>245.75</ele>
        <time>2016-09-26T12:24:47Z</time>
      </trkpt>
      <trkpt lat="44.41835" lon="4.20621">
        <ele>245.75</ele>
        <time>2016-09-26T12:24:50Z</time>
      </trkpt>
      <trkpt lat="44.41837" lon="4.20616">
        <ele>246.23</ele>
        <time>2016-09-26T12:24:54Z</time>
      </trkpt>
      <trkpt lat="44.41842" lon="4.20606">
        <ele>246.72</ele>
        <time>2016-09-26T12:25:06Z</time>
      </trkpt>
      <trkpt lat="44.41846" lon="4.206">
        <ele>247.2</ele>
        <time>2016-09-26T12:25:12Z</time>
      </trkpt>
      <trkpt lat="44.4185" lon="4.20593">
        <ele>247.68</ele>
        <time>2016-09-26T12:25:18Z</time>
      </trkpt>
      <trkpt lat="44.41859" lon="4.20579">
        <ele>247.2</ele>
        <time>2016-09-26T12:25:32Z</time>
      </trkpt>
      <trkpt lat="44.41862" lon="4.20575">
        <ele>247.2</ele>
        <time>2016-09-26T12:25:36Z</time>
      </trkpt>
      <trkpt lat="44.41863" lon="4.2057">
        <ele>247.2</ele>
        <time>2016-09-26T12:25:40Z</time>
      </trkpt>
      <trkpt lat="44.41867" lon="4.20556">
        <ele>247.68</ele>
        <time>2016-09-26T12:25:51Z</time>
      </trkpt>
      <trkpt lat="44.41869" lon="4.2055">
        <ele>247.68</ele>
        <time>2016-09-26T12:25:56Z</time>
      </trkpt>
      <trkpt lat="44.4187" lon="4.20548">
        <ele>247.68</ele>
        <time>2016-09-26T12:25:58Z</time>
      </trkpt>
      <trkpt lat="44.41877" lon="4.20536">
        <ele>248.64</ele>
        <time>2016-09-26T12:26:10Z</time>
      </trkpt>
      <trkpt lat="44.41877" lon="4.20535">
        <ele>248.16</ele>
        <time>2016-09-26T12:26:11Z</time>
      </trkpt>
      <trkpt lat="44.41879" lon="4.20532">
        <ele>248.16</ele>
        <time>2016-09-26T12:26:13Z</time>
      </trkpt>
      <trkpt lat="44.4189" lon="4.20521">
        <ele>248.64</ele>
        <time>2016-09-26T12:26:26Z</time>
      </trkpt>
      <trkpt lat="44.41893" lon="4.20518">
        <ele>248.16</ele>
        <time>2016-09-26T12:26:30Z</time>
      </trkpt>
      <trkpt lat="44.41907" lon="4.20516">
        <ele>249.12</ele>
        <time>2016-09-26T12:26:44Z</time>
      </trkpt>
      <trkpt lat="44.41918" lon="4.20516">
        <ele>249.6</ele>
        <time>2016-09-26T12:26:57Z</time>
      </trkpt>
      <trkpt lat="44.41922" lon="4.20518">
        <ele>250.08</ele>
        <time>2016-09-26T12:27:03Z</time>
      </trkpt>
      <trkpt lat="44.41935" lon="4.20525">
        <ele>250.56</ele>
        <time>2016-09-26T12:27:17Z</time>
      </trkpt>
      <trkpt lat="44.41938" lon="4.20526">
        <ele>250.56</ele>
        <time>2016-09-26T12:27:20Z</time>
      </trkpt>
      <trkpt lat="44.41944" lon="4.20526">
        <ele>250.56</ele>
        <time>2016-09-26T12:27:25Z</time>
      </trkpt>
      <trkpt lat="44.41959" lon="4.2052">
        <ele>251.04</ele>
        <time>2016-09-26T12:27:39Z</time>
      </trkpt>
      <trkpt lat="44.41965" lon="4.20512">
        <ele>251.52</ele>
        <time>2016-09-26T12:27:51Z</time>
      </trkpt>
      <trkpt lat="44.41973" lon="4.20503">
        <ele>252</ele>
        <time>2016-09-26T12:28:03Z</time>
      </trkpt>
      <trkpt lat="44.4198" lon="4.20498">
        <ele>252.48</ele>
        <time>2016-09-26T12:28:13Z</time>
      </trkpt>
      <trkpt lat="44.41985" lon="4.20498">
        <ele>252.48</ele>
        <time>2016-09-26T12:28:18Z</time>
      </trkpt>
      <trkpt lat="44.41987" lon="4.20498">
        <ele>252.48</ele>
        <time>2016-09-26T12:28:20Z</time>
      </trkpt>
      <trkpt lat="44.41991" lon="4.20496">
        <ele>252.48</ele>
        <time>2016-09-26T12:28:24Z</time>
      </trkpt>
      <trkpt lat="44.41994" lon="4.20493">
        <ele>252.96</ele>
        <time>2016-09-26T12:28:28Z</time>
      </trkpt>
      <trkpt lat="44.42001" lon="4.20483">
        <ele>253.44</ele>
        <time>2016-09-26T12:28:41Z</time>
      </trkpt>
      <trkpt lat="44.42009" lon="4.20478">
        <ele>253.44</ele>
        <time>2016-09-26T12:28:54Z</time>
      </trkpt>
      <trkpt lat="44.42013" lon="4.20477">
        <ele>253.93</ele>
        <time>2016-09-26T12:28:58Z</time>
      </trkpt>
      <trkpt lat="44.4202" lon="4.20477">
        <ele>253.93</ele>
        <time>2016-09-26T12:29:05Z</time>
      </trkpt>
      <trkpt lat="44.42032" lon="4.20475">
        <ele>254.89</ele>
        <time>2016-09-26T12:29:18Z</time>
      </trkpt>
      <trkpt lat="44.42039" lon="4.20472">
        <ele>254.89</ele>
        <time>2016-09-26T12:29:25Z</time>
      </trkpt>
      <trkpt lat="44.42051" lon="4.2047">
        <ele>255.85</ele>
        <time>2016-09-26T12:29:38Z</time>
      </trkpt>
      <trkpt lat="44.42055" lon="4.2047">
        <ele>255.85</ele>
        <time>2016-09-26T12:29:42Z</time>
      </trkpt>
      <trkpt lat="44.42069" lon="4.2047">
        <ele>255.85</ele>
        <time>2016-09-26T12:29:56Z</time>
      </trkpt>
      <trkpt lat="44.42072" lon="4.20468">
        <ele>256.33</ele>
        <time>2016-09-26T12:30:00Z</time>
      </trkpt>
      <trkpt lat="44.42078" lon="4.20463">
        <ele>256.33</ele>
        <time>2016-09-26T12:30:09Z</time>
      </trkpt>
      <trkpt lat="44.4208" lon="4.20462">
        <ele>256.33</ele>
        <time>2016-09-26T12:30:11Z</time>
      </trkpt>
      <trkpt lat="44.42082" lon="4.2046">
        <ele>256.33</ele>
        <time>2016-09-26T12:30:14Z</time>
      </trkpt>
      <trkpt lat="44.42093" lon="4.20448">
        <ele>257.29</ele>
        <time>2016-09-26T12:30:29Z</time>
      </trkpt>
      <trkpt lat="44.42105" lon="4.2044">
        <ele>258.25</ele>
        <time>2016-09-26T12:30:43Z</time>
      </trkpt>
      <trkpt lat="44.42109" lon="4.20434">
        <ele>258.25</ele>
        <time>2016-09-26T12:30:50Z</time>
      </trkpt>
      <trkpt lat="44.42114" lon="4.2043">
        <ele>258.73</ele>
        <time>2016-09-26T12:31:02Z</time>
      </trkpt>
      <trkpt lat="44.4212" lon="4.20423">
        <ele>258.73</ele>
        <time>2016-09-26T12:31:12Z</time>
      </trkpt>
      <trkpt lat="44.42125" lon="4.20417">
        <ele>258.73</ele>
        <time>2016-09-26T12:31:19Z</time>
      </trkpt>
      <trkpt lat="44.42128" lon="4.20406">
        <ele>258.25</ele>
        <time>2016-09-26T12:31:28Z</time>
      </trkpt>
      <trkpt lat="44.42137" lon="4.20388">
        <ele>258.25</ele>
        <time>2016-09-26T12:31:41Z</time>
      </trkpt>
      <trkpt lat="44.42147" lon="4.20372">
        <ele>259.21</ele>
        <time>2016-09-26T12:31:54Z</time>
      </trkpt>
      <trkpt lat="44.4215" lon="4.20363">
        <ele>259.69</ele>
        <time>2016-09-26T12:32:00Z</time>
      </trkpt>
      <trkpt lat="44.42154" lon="4.20353">
        <ele>259.69</ele>
        <time>2016-09-26T12:32:08Z</time>
      </trkpt>
      <trkpt lat="44.42159" lon="4.20342">
        <ele>260.17</ele>
        <time>2016-09-26T12:32:17Z</time>
      </trkpt>
      <trkpt lat="44.42168" lon="4.20324">
        <ele>260.65</ele>
        <time>2016-09-26T12:32:32Z</time>
      </trkpt>
      <trkpt lat="44.42176" lon="4.20309">
        <ele>260.65</ele>
        <time>2016-09-26T12:32:45Z</time>
      </trkpt>
      <trkpt lat="44.42183" lon="4.20299">
        <ele>260.17</ele>
        <time>2016-09-26T12:32:55Z</time>
      </trkpt>
      <trkpt lat="44.42191" lon="4.20292">
        <ele>259.21</ele>
        <time>2016-09-26T12:33:09Z</time>
      </trkpt>
      <trkpt lat="44.42192" lon="4.2029">
        <ele>259.21</ele>
        <time>2016-09-26T12:33:19Z</time>
      </trkpt>
      <trkpt lat="44.42194" lon="4.20288">
        <ele>259.21</ele>
        <time>2016-09-26T12:33:32Z</time>
      </trkpt>
      <trkpt lat="44.42196" lon="4.2029">
        <ele>259.21</ele>
        <time>2016-09-26T12:33:34Z</time>
      </trkpt>
      <trkpt lat="44.42212" lon="4.20293">
        <ele>257.77</ele>
        <time>2016-09-26T12:33:51Z</time>
      </trkpt>
      <trkpt lat="44.4222" lon="4.20294">
        <ele>257.77</ele>
        <time>2016-09-26T12:33:57Z</time>
      </trkpt>
      <trkpt lat="44.42233" lon="4.20298">
        <ele>257.29</ele>
        <time>2016-09-26T12:34:11Z</time>
      </trkpt>
      <trkpt lat="44.42244" lon="4.2031">
        <ele>257.77</ele>
        <time>2016-09-26T12:34:24Z</time>
      </trkpt>
      <trkpt lat="44.42245" lon="4.20311">
        <ele>257.77</ele>
        <time>2016-09-26T12:34:25Z</time>
      </trkpt>
      <trkpt lat="44.42256" lon="4.20323">
        <ele>257.77</ele>
        <time>2016-09-26T12:34:39Z</time>
      </trkpt>
      <trkpt lat="44.42261" lon="4.20327">
        <ele>257.77</ele>
        <time>2016-09-26T12:34:45Z</time>
      </trkpt>
      <trkpt lat="44.42264" lon="4.20327">
        <ele>256.81</ele>
        <time>2016-09-26T12:34:48Z</time>
      </trkpt>
      <trkpt lat="44.4227" lon="4.20328">
        <ele>256.33</ele>
        <time>2016-09-26T12:34:54Z</time>
      </trkpt>
      <trkpt lat="44.42274" lon="4.20327">
        <ele>256.33</ele>
        <time>2016-09-26T12:34:58Z</time>
      </trkpt>
      <trkpt lat="44.42276" lon="4.20327">
        <ele>255.85</ele>
        <time>2016-09-26T12:35:00Z</time>
      </trkpt>
      <trkpt lat="44.42287" lon="4.20328">
        <ele>254.89</ele>
        <time>2016-09-26T12:35:12Z</time>
      </trkpt>
      <trkpt lat="44.42297" lon="4.20329">
        <ele>254.41</ele>
        <time>2016-09-26T12:35:21Z</time>
      </trkpt>
      <trkpt lat="44.42314" lon="4.2032">
        <ele>252.96</ele>
        <time>2016-09-26T12:35:38Z</time>
      </trkpt>
      <trkpt lat="44.4232" lon="4.20315">
        <ele>252</ele>
        <time>2016-09-26T12:35:45Z</time>
      </trkpt>
      <trkpt lat="44.42323" lon="4.20313">
        <ele>252</ele>
        <time>2016-09-26T12:35:48Z</time>
      </trkpt>
      <trkpt lat="44.42329" lon="4.20308">
        <ele>251.52</ele>
        <time>2016-09-26T12:36:02Z</time>
      </trkpt>
      <trkpt lat="44.4233" lon="4.20308">
        <ele>251.52</ele>
        <time>2016-09-26T12:36:24Z</time>
      </trkpt>
      <trkpt lat="44.4233" lon="4.20308">
        <ele>251.52</ele>
        <time>2016-09-26T12:36:50Z</time>
      </trkpt>
      <trkpt lat="44.42331" lon="4.20308">
        <ele>251.52</ele>
        <time>2016-09-26T12:37:15Z</time>
      </trkpt>
      <trkpt lat="44.42332" lon="4.20305">
        <ele>251.04</ele>
        <time>2016-09-26T12:37:37Z</time>
      </trkpt>
      <trkpt lat="44.42344" lon="4.20291">
        <ele>250.08</ele>
        <time>2016-09-26T12:37:50Z</time>
      </trkpt>
      <trkpt lat="44.42348" lon="4.20288">
        <ele>250.08</ele>
        <time>2016-09-26T12:37:54Z</time>
      </trkpt>
      <trkpt lat="44.42352" lon="4.20285">
        <ele>249.6</ele>
        <time>2016-09-26T12:37:59Z</time>
      </trkpt>
      <trkpt lat="44.42352" lon="4.20274">
        <ele>249.12</ele>
        <time>2016-09-26T12:38:11Z</time>
      </trkpt>
      <trkpt lat="44.42351" lon="4.20272">
        <ele>249.12</ele>
        <time>2016-09-26T12:38:13Z</time>
      </trkpt>
      <trkpt lat="44.4235" lon="4.20263">
        <ele>248.16</ele>
        <time>2016-09-26T12:38:21Z</time>
      </trkpt>
      <trkpt lat="44.42353" lon="4.20245">
        <ele>245.75</ele>
        <time>2016-09-26T12:38:36Z</time>
      </trkpt>
      <trkpt lat="44.42352" lon="4.20232">
        <ele>244.79</ele>
        <time>2016-09-26T12:38:49Z</time>
      </trkpt>
      <trkpt lat="44.4235" lon="4.20217">
        <ele>243.83</ele>
        <time>2016-09-26T12:39:02Z</time>
      </trkpt>
      <trkpt lat="44.42348" lon="4.20198">
        <ele>242.87</ele>
        <time>2016-09-26T12:39:14Z</time>
      </trkpt>
      <trkpt lat="44.42348" lon="4.20197">
        <ele>242.87</ele>
        <time>2016-09-26T12:39:15Z</time>
      </trkpt>
      <trkpt lat="44.42347" lon="4.20187">
        <ele>242.39</ele>
        <time>2016-09-26T12:39:21Z</time>
      </trkpt>
      <trkpt lat="44.42345" lon="4.2017">
        <ele>241.91</ele>
        <time>2016-09-26T12:39:33Z</time>
      </trkpt>
      <trkpt lat="44.4234" lon="4.2015">
        <ele>241.91</ele>
        <time>2016-09-26T12:39:47Z</time>
      </trkpt>
      <trkpt lat="44.42338" lon="4.20131">
        <ele>241.91</ele>
        <time>2016-09-26T12:40:01Z</time>
      </trkpt>
      <trkpt lat="44.42338" lon="4.2013">
        <ele>241.91</ele>
        <time>2016-09-26T12:40:02Z</time>
      </trkpt>
      <trkpt lat="44.42336" lon="4.20122">
        <ele>242.39</ele>
        <time>2016-09-26T12:40:14Z</time>
      </trkpt>
      <trkpt lat="44.42333" lon="4.20119">
        <ele>242.39</ele>
        <time>2016-09-26T12:40:27Z</time>
      </trkpt>
      <trkpt lat="44.42328" lon="4.20119">
        <ele>241.91</ele>
        <time>2016-09-26T12:40:42Z</time>
      </trkpt>
      <trkpt lat="44.4232" lon="4.20115">
        <ele>241.91</ele>
        <time>2016-09-26T12:40:55Z</time>
      </trkpt>
      <trkpt lat="44.42318" lon="4.20114">
        <ele>241.43</ele>
        <time>2016-09-26T12:40:57Z</time>
      </trkpt>
      <trkpt lat="44.42315" lon="4.20111">
        <ele>241.43</ele>
        <time>2016-09-26T12:41:01Z</time>
      </trkpt>
      <trkpt lat="44.42312" lon="4.20109">
        <ele>241.43</ele>
        <time>2016-09-26T12:41:06Z</time>
      </trkpt>
      <trkpt lat="44.42309" lon="4.20107">
        <ele>241.43</ele>
        <time>2016-09-26T12:41:09Z</time>
      </trkpt>
      <trkpt lat="44.42305" lon="4.20102">
        <ele>240.95</ele>
        <time>2016-09-26T12:41:15Z</time>
      </trkpt>
      <trkpt lat="44.423" lon="4.20099">
        <ele>240.47</ele>
        <time>2016-09-26T12:41:21Z</time>
      </trkpt>
      <trkpt lat="44.42295" lon="4.20093">
        <ele>240.47</ele>
        <time>2016-09-26T12:41:28Z</time>
      </trkpt>
      <trkpt lat="44.42287" lon="4.20087">
        <ele>239.99</ele>
        <time>2016-09-26T12:41:39Z</time>
      </trkpt>
      <trkpt lat="44.42287" lon="4.20087">
        <ele>239.99</ele>
        <time>2016-09-26T12:41:42Z</time>
      </trkpt>
      <trkpt lat="44.42283" lon="4.20084">
        <ele>239.99</ele>
        <time>2016-09-26T12:41:47Z</time>
      </trkpt>
      <trkpt lat="44.42277" lon="4.20078">
        <ele>239.51</ele>
        <time>2016-09-26T12:41:54Z</time>
      </trkpt>
      <trkpt lat="44.42271" lon="4.20073">
        <ele>239.51</ele>
        <time>2016-09-26T12:42:00Z</time>
      </trkpt>
      <trkpt lat="44.42265" lon="4.2007">
        <ele>239.51</ele>
        <time>2016-09-26T12:42:08Z</time>
      </trkpt>
      <trkpt lat="44.42261" lon="4.20066">
        <ele>239.51</ele>
        <time>2016-09-26T12:42:15Z</time>
      </trkpt>
      <trkpt lat="44.42256" lon="4.20065">
        <ele>239.51</ele>
        <time>2016-09-26T12:42:25Z</time>
      </trkpt>
      <trkpt lat="44.42256" lon="4.20065">
        <ele>239.51</ele>
        <time>2016-09-26T12:42:46Z</time>
      </trkpt>
      <trkpt lat="44.42255" lon="4.20065">
        <ele>239.51</ele>
        <time>2016-09-26T12:43:21Z</time>
      </trkpt>
      <trkpt lat="44.42255" lon="4.20067">
        <ele>238.54</ele>
        <time>2016-09-26T12:43:41Z</time>
      </trkpt>
      <trkpt lat="44.42255" lon="4.20068">
        <ele>238.54</ele>
        <time>2016-09-26T12:44:17Z</time>
      </trkpt>
      <trkpt lat="44.42255" lon="4.20068">
        <ele>238.54</ele>
        <time>2016-09-26T12:44:50Z</time>
      </trkpt>
      <trkpt lat="44.42255" lon="4.20068">
        <ele>238.06</ele>
        <time>2016-09-26T12:45:23Z</time>
      </trkpt>
      <trkpt lat="44.42255" lon="4.20068">
        <ele>238.06</ele>
        <time>2016-09-26T12:45:57Z</time>
      </trkpt>
      <trkpt lat="44.42255" lon="4.20067">
        <ele>239.02</ele>
        <time>2016-09-26T12:46:32Z</time>
      </trkpt>
      <trkpt lat="44.42255" lon="4.20067">
        <ele>238.06</ele>
        <time>2016-09-26T12:47:03Z</time>
      </trkpt>
      <trkpt lat="44.42254" lon="4.20066">
        <ele>237.58</ele>
        <time>2016-09-26T12:47:31Z</time>
      </trkpt>
      <trkpt lat="44.42254" lon="4.20065">
        <ele>238.54</ele>
        <time>2016-09-26T12:47:42Z</time>
      </trkpt>
      <trkpt lat="44.42254" lon="4.20065">
        <ele>238.54</ele>
        <time>2016-09-26T12:47:59Z</time>
      </trkpt>
      <trkpt lat="44.4226" lon="4.20069">
        <ele>238.54</ele>
        <time>2016-09-26T12:48:10Z</time>
      </trkpt>
      <trkpt lat="44.42262" lon="4.20071">
        <ele>238.54</ele>
        <time>2016-09-26T12:48:13Z</time>
      </trkpt>
      <trkpt lat="44.4227" lon="4.20075">
        <ele>238.54</ele>
        <time>2016-09-26T12:48:22Z</time>
      </trkpt>
      <trkpt lat="44.42285" lon="4.20088">
        <ele>238.54</ele>
        <time>2016-09-26T12:48:38Z</time>
      </trkpt>
      <trkpt lat="44.42297" lon="4.20098">
        <ele>239.02</ele>
        <time>2016-09-26T12:48:51Z</time>
      </trkpt>
      <trkpt lat="44.42303" lon="4.20102">
        <ele>239.02</ele>
        <time>2016-09-26T12:48:58Z</time>
      </trkpt>
      <trkpt lat="44.42314" lon="4.20111">
        <ele>239.51</ele>
        <time>2016-09-26T12:49:13Z</time>
      </trkpt>
      <trkpt lat="44.42316" lon="4.20113">
        <ele>239.51</ele>
        <time>2016-09-26T12:49:17Z</time>
      </trkpt>
      <trkpt lat="44.4232" lon="4.2012">
        <ele>239.51</ele>
        <time>2016-09-26T12:49:30Z</time>
      </trkpt>
      <trkpt lat="44.42319" lon="4.20121">
        <ele>239.51</ele>
        <time>2016-09-26T12:49:32Z</time>
      </trkpt>
      <trkpt lat="44.42308" lon="4.20119">
        <ele>239.02</ele>
        <time>2016-09-26T12:49:47Z</time>
      </trkpt>
      <trkpt lat="44.42304" lon="4.20119">
        <ele>239.02</ele>
        <time>2016-09-26T12:49:50Z</time>
      </trkpt>
      <trkpt lat="44.42301" lon="4.2013">
        <ele>238.54</ele>
        <time>2016-09-26T12:50:02Z</time>
      </trkpt>
      <trkpt lat="44.42307" lon="4.20134">
        <ele>238.54</ele>
        <time>2016-09-26T12:50:14Z</time>
      </trkpt>
      <trkpt lat="44.42311" lon="4.20135">
        <ele>238.54</ele>
        <time>2016-09-26T12:50:26Z</time>
      </trkpt>
      <trkpt lat="44.42316" lon="4.20129">
        <ele>239.02</ele>
        <time>2016-09-26T12:50:35Z</time>
      </trkpt>
      <trkpt lat="44.42324" lon="4.20121">
        <ele>239.51</ele>
        <time>2016-09-26T12:50:48Z</time>
      </trkpt>
      <trkpt lat="44.42332" lon="4.2012">
        <ele>239.99</ele>
        <time>2016-09-26T12:51:01Z</time>
      </trkpt>
      <trkpt lat="44.42335" lon="4.20119">
        <ele>239.51</ele>
        <time>2016-09-26T12:51:23Z</time>
      </trkpt>
      <trkpt lat="44.42336" lon="4.20118">
        <ele>239.51</ele>
        <time>2016-09-26T12:51:45Z</time>
      </trkpt>
      <trkpt lat="44.42336" lon="4.20117">
        <ele>239.99</ele>
        <time>2016-09-26T12:52:17Z</time>
      </trkpt>
      <trkpt lat="44.42336" lon="4.20115">
        <ele>239.51</ele>
        <time>2016-09-26T12:52:29Z</time>
      </trkpt>
      <trkpt lat="44.42341" lon="4.2011">
        <ele>239.51</ele>
        <time>2016-09-26T12:52:41Z</time>
      </trkpt>
      <trkpt lat="44.42341" lon="4.20109">
        <ele>239.51</ele>
        <time>2016-09-26T12:53:01Z</time>
      </trkpt>
      <trkpt lat="44.4234" lon="4.20109">
        <ele>239.02</ele>
        <time>2016-09-26T12:53:17Z</time>
      </trkpt>
      <trkpt lat="44.42338" lon="4.20109">
        <ele>239.02</ele>
        <time>2016-09-26T12:53:30Z</time>
      </trkpt>
      <trkpt lat="44.42337" lon="4.20111">
        <ele>239.02</ele>
        <time>2016-09-26T12:53:41Z</time>
      </trkpt>
      <trkpt lat="44.42335" lon="4.20115">
        <ele>239.02</ele>
        <time>2016-09-26T12:53:54Z</time>
      </trkpt>
      <trkpt lat="44.42335" lon="4.20128">
        <ele>239.02</ele>
        <time>2016-09-26T12:54:07Z</time>
      </trkpt>
      <trkpt lat="44.42336" lon="4.20132">
        <ele>239.02</ele>
        <time>2016-09-26T12:54:19Z</time>
      </trkpt>
      <trkpt lat="44.42338" lon="4.20133">
        <ele>238.54</ele>
        <time>2016-09-26T12:54:29Z</time>
      </trkpt>
      <trkpt lat="44.42336" lon="4.20133">
        <ele>239.02</ele>
        <time>2016-09-26T12:54:43Z</time>
      </trkpt>
      <trkpt lat="44.42335" lon="4.20137">
        <ele>238.54</ele>
        <time>2016-09-26T12:54:47Z</time>
      </trkpt>
      <trkpt lat="44.42337" lon="4.20144">
        <ele>238.54</ele>
        <time>2016-09-26T12:54:54Z</time>
      </trkpt>
      <trkpt lat="44.42338" lon="4.20158">
        <ele>238.54</ele>
        <time>2016-09-26T12:55:05Z</time>
      </trkpt>
      <trkpt lat="44.42338" lon="4.20161">
        <ele>238.54</ele>
        <time>2016-09-26T12:55:07Z</time>
      </trkpt>
      <trkpt lat="44.42339" lon="4.20165">
        <ele>238.54</ele>
        <time>2016-09-26T12:55:10Z</time>
      </trkpt>
      <trkpt lat="44.4234" lon="4.20168">
        <ele>238.54</ele>
        <time>2016-09-26T12:55:12Z</time>
      </trkpt>
      <trkpt lat="44.42342" lon="4.20189">
        <ele>239.51</ele>
        <time>2016-09-26T12:55:28Z</time>
      </trkpt>
      <trkpt lat="44.42342" lon="4.20193">
        <ele>239.51</ele>
        <time>2016-09-26T12:55:31Z</time>
      </trkpt>
      <trkpt lat="44.42343" lon="4.20201">
        <ele>239.99</ele>
        <time>2016-09-26T12:55:38Z</time>
      </trkpt>
      <trkpt lat="44.42344" lon="4.2021">
        <ele>240.47</ele>
        <time>2016-09-26T12:55:45Z</time>
      </trkpt>
      <trkpt lat="44.42346" lon="4.20223">
        <ele>241.43</ele>
        <time>2016-09-26T12:55:57Z</time>
      </trkpt>
      <trkpt lat="44.42348" lon="4.20236">
        <ele>242.87</ele>
        <time>2016-09-26T12:56:10Z</time>
      </trkpt>
      <trkpt lat="44.42347" lon="4.2025">
        <ele>244.31</ele>
        <time>2016-09-26T12:56:25Z</time>
      </trkpt>
      <trkpt lat="44.42348" lon="4.20268">
        <ele>245.75</ele>
        <time>2016-09-26T12:56:39Z</time>
      </trkpt>
      <trkpt lat="44.42349" lon="4.20277">
        <ele>246.23</ele>
        <time>2016-09-26T12:56:46Z</time>
      </trkpt>
      <trkpt lat="44.42349" lon="4.20282">
        <ele>246.23</ele>
        <time>2016-09-26T12:56:50Z</time>
      </trkpt>
      <trkpt lat="44.42339" lon="4.20292">
        <ele>247.2</ele>
        <time>2016-09-26T12:57:04Z</time>
      </trkpt>
      <trkpt lat="44.42339" lon="4.20293">
        <ele>247.2</ele>
        <time>2016-09-26T12:57:05Z</time>
      </trkpt>
      <trkpt lat="44.42336" lon="4.20296">
        <ele>247.2</ele>
        <time>2016-09-26T12:57:09Z</time>
      </trkpt>
      <trkpt lat="44.42324" lon="4.20308">
        <ele>248.16</ele>
        <time>2016-09-26T12:57:23Z</time>
      </trkpt>
      <trkpt lat="44.42313" lon="4.20318">
        <ele>249.6</ele>
        <time>2016-09-26T12:57:37Z</time>
      </trkpt>
      <trkpt lat="44.42307" lon="4.20322">
        <ele>250.08</ele>
        <time>2016-09-26T12:57:44Z</time>
      </trkpt>
      <trkpt lat="44.42301" lon="4.20323">
        <ele>251.04</ele>
        <time>2016-09-26T12:57:51Z</time>
      </trkpt>
      <trkpt lat="44.4229" lon="4.20325">
        <ele>252</ele>
        <time>2016-09-26T12:58:06Z</time>
      </trkpt>
      <trkpt lat="44.42281" lon="4.20324">
        <ele>252.48</ele>
        <time>2016-09-26T12:58:16Z</time>
      </trkpt>
      <trkpt lat="44.42267" lon="4.20325">
        <ele>253.93</ele>
        <time>2016-09-26T12:58:31Z</time>
      </trkpt>
      <trkpt lat="44.42266" lon="4.20324">
        <ele>253.93</ele>
        <time>2016-09-26T12:58:32Z</time>
      </trkpt>
      <trkpt lat="44.42254" lon="4.20317">
        <ele>254.41</ele>
        <time>2016-09-26T12:58:46Z</time>
      </trkpt>
      <trkpt lat="44.42245" lon="4.20308">
        <ele>254.41</ele>
        <time>2016-09-26T12:58:59Z</time>
      </trkpt>
      <trkpt lat="44.42241" lon="4.20305">
        <ele>253.93</ele>
        <time>2016-09-26T12:59:07Z</time>
      </trkpt>
      <trkpt lat="44.42238" lon="4.20301">
        <ele>253.93</ele>
        <time>2016-09-26T12:59:11Z</time>
      </trkpt>
      <trkpt lat="44.42223" lon="4.20295">
        <ele>254.41</ele>
        <time>2016-09-26T12:59:25Z</time>
      </trkpt>
      <trkpt lat="44.42222" lon="4.20294">
        <ele>254.41</ele>
        <time>2016-09-26T12:59:26Z</time>
      </trkpt>
      <trkpt lat="44.42215" lon="4.20294">
        <ele>254.89</ele>
        <time>2016-09-26T12:59:33Z</time>
      </trkpt>
      <trkpt lat="44.42212" lon="4.20294">
        <ele>255.37</ele>
        <time>2016-09-26T12:59:36Z</time>
      </trkpt>
      <trkpt lat="44.42197" lon="4.20289">
        <ele>255.85</ele>
        <time>2016-09-26T12:59:51Z</time>
      </trkpt>
      <trkpt lat="44.42194" lon="4.20289">
        <ele>255.85</ele>
        <time>2016-09-26T12:59:53Z</time>
      </trkpt>
      <trkpt lat="44.42192" lon="4.2029">
        <ele>255.85</ele>
        <time>2016-09-26T12:59:55Z</time>
      </trkpt>
      <trkpt lat="44.42177" lon="4.203">
        <ele>256.81</ele>
        <time>2016-09-26T13:00:10Z</time>
      </trkpt>
      <trkpt lat="44.42172" lon="4.20308">
        <ele>257.29</ele>
        <time>2016-09-26T13:00:16Z</time>
      </trkpt>
      <trkpt lat="44.4217" lon="4.20311">
        <ele>256.81</ele>
        <time>2016-09-26T13:00:19Z</time>
      </trkpt>
      <trkpt lat="44.42168" lon="4.20314">
        <ele>256.81</ele>
        <time>2016-09-26T13:00:22Z</time>
      </trkpt>
      <trkpt lat="44.42159" lon="4.20335">
        <ele>256.33</ele>
        <time>2016-09-26T13:00:36Z</time>
      </trkpt>
      <trkpt lat="44.42155" lon="4.20343">
        <ele>255.85</ele>
        <time>2016-09-26T13:00:43Z</time>
      </trkpt>
      <trkpt lat="44.42149" lon="4.20356">
        <ele>255.37</ele>
        <time>2016-09-26T13:00:52Z</time>
      </trkpt>
      <trkpt lat="44.42141" lon="4.20375">
        <ele>254.89</ele>
        <time>2016-09-26T13:01:06Z</time>
      </trkpt>
      <trkpt lat="44.42137" lon="4.20384">
        <ele>254.41</ele>
        <time>2016-09-26T13:01:13Z</time>
      </trkpt>
      <trkpt lat="44.42132" lon="4.20393">
        <ele>254.41</ele>
        <time>2016-09-26T13:01:20Z</time>
      </trkpt>
      <trkpt lat="44.42127" lon="4.204">
        <ele>254.41</ele>
        <time>2016-09-26T13:01:26Z</time>
      </trkpt>
      <trkpt lat="44.42123" lon="4.20406">
        <ele>254.89</ele>
        <time>2016-09-26T13:01:32Z</time>
      </trkpt>
      <trkpt lat="44.42116" lon="4.20422">
        <ele>254.41</ele>
        <time>2016-09-26T13:01:45Z</time>
      </trkpt>
      <trkpt lat="44.42111" lon="4.20428">
        <ele>254.41</ele>
        <time>2016-09-26T13:01:51Z</time>
      </trkpt>
      <trkpt lat="44.42098" lon="4.20438">
        <ele>253.44</ele>
        <time>2016-09-26T13:02:05Z</time>
      </trkpt>
      <trkpt lat="44.42086" lon="4.2045">
        <ele>252.48</ele>
        <time>2016-09-26T13:02:20Z</time>
      </trkpt>
      <trkpt lat="44.42085" lon="4.20452">
        <ele>252</ele>
        <time>2016-09-26T13:02:22Z</time>
      </trkpt>
      <trkpt lat="44.42071" lon="4.20461">
        <ele>251.52</ele>
        <time>2016-09-26T13:02:37Z</time>
      </trkpt>
      <trkpt lat="44.42069" lon="4.20463">
        <ele>251.52</ele>
        <time>2016-09-26T13:02:39Z</time>
      </trkpt>
      <trkpt lat="44.42064" lon="4.20465">
        <ele>251.52</ele>
        <time>2016-09-26T13:02:45Z</time>
      </trkpt>
      <trkpt lat="44.4206" lon="4.20468">
        <ele>251.52</ele>
        <time>2016-09-26T13:02:49Z</time>
      </trkpt>
      <trkpt lat="44.42053" lon="4.20466">
        <ele>251.04</ele>
        <time>2016-09-26T13:02:56Z</time>
      </trkpt>
      <trkpt lat="44.42046" lon="4.20468">
        <ele>251.04</ele>
        <time>2016-09-26T13:03:02Z</time>
      </trkpt>
      <trkpt lat="44.42043" lon="4.20468">
        <ele>250.56</ele>
        <time>2016-09-26T13:03:05Z</time>
      </trkpt>
      <trkpt lat="44.42027" lon="4.20472">
        <ele>250.08</ele>
        <time>2016-09-26T13:03:19Z</time>
      </trkpt>
      <trkpt lat="44.42015" lon="4.20474">
        <ele>249.12</ele>
        <time>2016-09-26T13:03:31Z</time>
      </trkpt>
      <trkpt lat="44.42" lon="4.20479">
        <ele>248.64</ele>
        <time>2016-09-26T13:03:45Z</time>
      </trkpt>
      <trkpt lat="44.41993" lon="4.20488">
        <ele>248.16</ele>
        <time>2016-09-26T13:03:54Z</time>
      </trkpt>
      <trkpt lat="44.41986" lon="4.20494">
        <ele>247.68</ele>
        <time>2016-09-26T13:04:02Z</time>
      </trkpt>
      <trkpt lat="44.41983" lon="4.20494">
        <ele>247.68</ele>
        <time>2016-09-26T13:04:05Z</time>
      </trkpt>
      <trkpt lat="44.41971" lon="4.20503">
        <ele>247.2</ele>
        <time>2016-09-26T13:04:18Z</time>
      </trkpt>
      <trkpt lat="44.41969" lon="4.20504">
        <ele>247.2</ele>
        <time>2016-09-26T13:04:20Z</time>
      </trkpt>
      <trkpt lat="44.41966" lon="4.20507">
        <ele>246.72</ele>
        <time>2016-09-26T13:04:23Z</time>
      </trkpt>
      <trkpt lat="44.41965" lon="4.2051">
        <ele>246.72</ele>
        <time>2016-09-26T13:04:25Z</time>
      </trkpt>
      <trkpt lat="44.41957" lon="4.20518">
        <ele>246.72</ele>
        <time>2016-09-26T13:04:34Z</time>
      </trkpt>
      <trkpt lat="44.41949" lon="4.20522">
        <ele>245.75</ele>
        <time>2016-09-26T13:04:43Z</time>
      </trkpt>
      <trkpt lat="44.41946" lon="4.20523">
        <ele>245.27</ele>
        <time>2016-09-26T13:04:45Z</time>
      </trkpt>
      <trkpt lat="44.41937" lon="4.20523">
        <ele>245.27</ele>
        <time>2016-09-26T13:04:54Z</time>
      </trkpt>
      <trkpt lat="44.41934" lon="4.20522">
        <ele>245.27</ele>
        <time>2016-09-26T13:04:57Z</time>
      </trkpt>
      <trkpt lat="44.41919" lon="4.20513">
        <ele>244.79</ele>
        <time>2016-09-26T13:05:14Z</time>
      </trkpt>
      <trkpt lat="44.41905" lon="4.20511">
        <ele>244.31</ele>
        <time>2016-09-26T13:05:27Z</time>
      </trkpt>
      <trkpt lat="44.41901" lon="4.20511">
        <ele>243.83</ele>
        <time>2016-09-26T13:05:31Z</time>
      </trkpt>
      <trkpt lat="44.41898" lon="4.20512">
        <ele>243.83</ele>
        <time>2016-09-26T13:05:34Z</time>
      </trkpt>
      <trkpt lat="44.41881" lon="4.20523">
        <ele>243.35</ele>
        <time>2016-09-26T13:05:50Z</time>
      </trkpt>
      <trkpt lat="44.4188" lon="4.20524">
        <ele>243.35</ele>
        <time>2016-09-26T13:05:51Z</time>
      </trkpt>
      <trkpt lat="44.41875" lon="4.20532">
        <ele>243.35</ele>
        <time>2016-09-26T13:05:58Z</time>
      </trkpt>
      <trkpt lat="44.41865" lon="4.20547">
        <ele>242.87</ele>
        <time>2016-09-26T13:06:13Z</time>
      </trkpt>
      <trkpt lat="44.41858" lon="4.20563">
        <ele>242.39</ele>
        <time>2016-09-26T13:06:27Z</time>
      </trkpt>
      <trkpt lat="44.41853" lon="4.20572">
        <ele>243.35</ele>
        <time>2016-09-26T13:06:34Z</time>
      </trkpt>
      <trkpt lat="44.4185" lon="4.20574">
        <ele>242.87</ele>
        <time>2016-09-26T13:06:37Z</time>
      </trkpt>
      <trkpt lat="44.41848" lon="4.20578">
        <ele>242.87</ele>
        <time>2016-09-26T13:06:40Z</time>
      </trkpt>
      <trkpt lat="44.41838" lon="4.20597">
        <ele>242.39</ele>
        <time>2016-09-26T13:06:55Z</time>
      </trkpt>
      <trkpt lat="44.41835" lon="4.20601">
        <ele>241.91</ele>
        <time>2016-09-26T13:06:59Z</time>
      </trkpt>
      <trkpt lat="44.41825" lon="4.20619">
        <ele>240.95</ele>
        <time>2016-09-26T13:07:14Z</time>
      </trkpt>
      <trkpt lat="44.41821" lon="4.20627">
        <ele>240.95</ele>
        <time>2016-09-26T13:07:20Z</time>
      </trkpt>
      <trkpt lat="44.41816" lon="4.20635">
        <ele>240.95</ele>
        <time>2016-09-26T13:07:27Z</time>
      </trkpt>
      <trkpt lat="44.41815" lon="4.20638">
        <ele>240.95</ele>
        <time>2016-09-26T13:07:29Z</time>
      </trkpt>
      <trkpt lat="44.41814" lon="4.20646">
        <ele>240.95</ele>
        <time>2016-09-26T13:07:34Z</time>
      </trkpt>
      <trkpt lat="44.41812" lon="4.2065">
        <ele>240.95</ele>
        <time>2016-09-26T13:07:37Z</time>
      </trkpt>
      <trkpt lat="44.41812" lon="4.20656">
        <ele>240.95</ele>
        <time>2016-09-26T13:07:40Z</time>
      </trkpt>
      <trkpt lat="44.41808" lon="4.20669">
        <ele>239.99</ele>
        <time>2016-09-26T13:07:50Z</time>
      </trkpt>
      <trkpt lat="44.41808" lon="4.2068">
        <ele>239.51</ele>
        <time>2016-09-26T13:07:58Z</time>
      </trkpt>
      <trkpt lat="44.41805" lon="4.20689">
        <ele>239.02</ele>
        <time>2016-09-26T13:08:06Z</time>
      </trkpt>
      <trkpt lat="44.418" lon="4.207">
        <ele>238.54</ele>
        <time>2016-09-26T13:08:18Z</time>
      </trkpt>
      <trkpt lat="44.418" lon="4.20702">
        <ele>238.54</ele>
        <time>2016-09-26T13:08:19Z</time>
      </trkpt>
      <trkpt lat="44.41796" lon="4.20702">
        <ele>238.06</ele>
        <time>2016-09-26T13:08:22Z</time>
      </trkpt>
      <trkpt lat="44.41785" lon="4.20711">
        <ele>237.1</ele>
        <time>2016-09-26T13:08:37Z</time>
      </trkpt>
      <trkpt lat="44.41775" lon="4.20717">
        <ele>236.14</ele>
        <time>2016-09-26T13:08:52Z</time>
      </trkpt>
      <trkpt lat="44.41767" lon="4.2072">
        <ele>235.18</ele>
        <time>2016-09-26T13:09:06Z</time>
      </trkpt>
      <trkpt lat="44.41756" lon="4.20719">
        <ele>234.7</ele>
        <time>2016-09-26T13:09:20Z</time>
      </trkpt>
      <trkpt lat="44.41746" lon="4.20718">
        <ele>234.22</ele>
        <time>2016-09-26T13:09:33Z</time>
      </trkpt>
      <trkpt lat="44.41738" lon="4.2071">
        <ele>234.7</ele>
        <time>2016-09-26T13:09:46Z</time>
      </trkpt>
      <trkpt lat="44.41728" lon="4.20695">
        <ele>235.18</ele>
        <time>2016-09-26T13:10:00Z</time>
      </trkpt>
      <trkpt lat="44.41718" lon="4.20692">
        <ele>235.66</ele>
        <time>2016-09-26T13:10:10Z</time>
      </trkpt>
      <trkpt lat="44.41708" lon="4.20701">
        <ele>235.66</ele>
        <time>2016-09-26T13:10:21Z</time>
      </trkpt>
      <trkpt lat="44.41706" lon="4.20705">
        <ele>236.14</ele>
        <time>2016-09-26T13:10:25Z</time>
      </trkpt>
      <trkpt lat="44.417" lon="4.20715">
        <ele>235.18</ele>
        <time>2016-09-26T13:10:37Z</time>
      </trkpt>
      <trkpt lat="44.41696" lon="4.20719">
        <ele>234.7</ele>
        <time>2016-09-26T13:10:42Z</time>
      </trkpt>
      <trkpt lat="44.4169" lon="4.2073">
        <ele>234.22</ele>
        <time>2016-09-26T13:10:53Z</time>
      </trkpt>
      <trkpt lat="44.41684" lon="4.20741">
        <ele>233.74</ele>
        <time>2016-09-26T13:11:05Z</time>
      </trkpt>
      <trkpt lat="44.41684" lon="4.20746">
        <ele>233.74</ele>
        <time>2016-09-26T13:11:09Z</time>
      </trkpt>
      <trkpt lat="44.41683" lon="4.20755">
        <ele>234.22</ele>
        <time>2016-09-26T13:11:17Z</time>
      </trkpt>
      <trkpt lat="44.41679" lon="4.2076">
        <ele>234.7</ele>
        <time>2016-09-26T13:11:25Z</time>
      </trkpt>
      <trkpt lat="44.41677" lon="4.20767">
        <ele>235.18</ele>
        <time>2016-09-26T13:11:31Z</time>
      </trkpt>
      <trkpt lat="44.41672" lon="4.20787">
        <ele>235.66</ele>
        <time>2016-09-26T13:11:45Z</time>
      </trkpt>
      <trkpt lat="44.41666" lon="4.20799">
        <ele>236.14</ele>
        <time>2016-09-26T13:11:57Z</time>
      </trkpt>
      <trkpt lat="44.41657" lon="4.20808">
        <ele>236.14</ele>
        <time>2016-09-26T13:12:11Z</time>
      </trkpt>
      <trkpt lat="44.41655" lon="4.20809">
        <ele>236.14</ele>
        <time>2016-09-26T13:12:14Z</time>
      </trkpt>
      <trkpt lat="44.41649" lon="4.20816">
        <ele>235.66</ele>
        <time>2016-09-26T13:12:26Z</time>
      </trkpt>
      <trkpt lat="44.41645" lon="4.20825">
        <ele>234.22</ele>
        <time>2016-09-26T13:12:38Z</time>
      </trkpt>
      <trkpt lat="44.41643" lon="4.20838">
        <ele>233.26</ele>
        <time>2016-09-26T13:12:49Z</time>
      </trkpt>
      <trkpt lat="44.41637" lon="4.20846">
        <ele>232.78</ele>
        <time>2016-09-26T13:13:02Z</time>
      </trkpt>
      <trkpt lat="44.41635" lon="4.20849">
        <ele>232.3</ele>
        <time>2016-09-26T13:13:08Z</time>
      </trkpt>
      <trkpt lat="44.41628" lon="4.20854">
        <ele>232.3</ele>
        <time>2016-09-26T13:13:19Z</time>
      </trkpt>
      <trkpt lat="44.41626" lon="4.20857">
        <ele>231.33</ele>
        <time>2016-09-26T13:13:30Z</time>
      </trkpt>
      <trkpt lat="44.4162" lon="4.20859">
        <ele>230.37</ele>
        <time>2016-09-26T13:13:43Z</time>
      </trkpt>
      <trkpt lat="44.41616" lon="4.20862">
        <ele>229.41</ele>
        <time>2016-09-26T13:13:55Z</time>
      </trkpt>
      <trkpt lat="44.41611" lon="4.20866">
        <ele>227.97</ele>
        <time>2016-09-26T13:14:09Z</time>
      </trkpt>
      <trkpt lat="44.4161" lon="4.20866">
        <ele>227.97</ele>
        <time>2016-09-26T13:14:11Z</time>
      </trkpt>
      <trkpt lat="44.41603" lon="4.20865">
        <ele>227.49</ele>
        <time>2016-09-26T13:14:20Z</time>
      </trkpt>
      <trkpt lat="44.41594" lon="4.20865">
        <ele>226.53</ele>
        <time>2016-09-26T13:14:32Z</time>
      </trkpt>
      <trkpt lat="44.41591" lon="4.20864">
        <ele>226.53</ele>
        <time>2016-09-26T13:14:36Z</time>
      </trkpt>
      <trkpt lat="44.41577" lon="4.20871">
        <ele>225.57</ele>
        <time>2016-09-26T13:14:51Z</time>
      </trkpt>
      <trkpt lat="44.41566" lon="4.20883">
        <ele>225.57</ele>
        <time>2016-09-26T13:15:05Z</time>
      </trkpt>
      <trkpt lat="44.4156" lon="4.20893">
        <ele>225.57</ele>
        <time>2016-09-26T13:15:16Z</time>
      </trkpt>
      <trkpt lat="44.41553" lon="4.20903">
        <ele>225.57</ele>
        <time>2016-09-26T13:15:27Z</time>
      </trkpt>
      <trkpt lat="44.41551" lon="4.20906">
        <ele>225.09</ele>
        <time>2016-09-26T13:15:32Z</time>
      </trkpt>
      <trkpt lat="44.41549" lon="4.2092">
        <ele>225.09</ele>
        <time>2016-09-26T13:15:45Z</time>
      </trkpt>
      <trkpt lat="44.41551" lon="4.20929">
        <ele>225.09</ele>
        <time>2016-09-26T13:15:57Z</time>
      </trkpt>
      <trkpt lat="44.41555" lon="4.20941">
        <ele>227.49</ele>
        <time>2016-09-26T13:16:11Z</time>
      </trkpt>
      <trkpt lat="44.41561" lon="4.20947">
        <ele>229.41</ele>
        <time>2016-09-26T13:16:23Z</time>
      </trkpt>
      <trkpt lat="44.41568" lon="4.20948">
        <ele>231.81</ele>
        <time>2016-09-26T13:16:35Z</time>
      </trkpt>
      <trkpt lat="44.41573" lon="4.20947">
        <ele>232.3</ele>
        <time>2016-09-26T13:16:49Z</time>
      </trkpt>
      <trkpt lat="44.41576" lon="4.20945">
        <ele>232.3</ele>
        <time>2016-09-26T13:17:12Z</time>
      </trkpt>
      <trkpt lat="44.41579" lon="4.20939">
        <ele>233.74</ele>
        <time>2016-09-26T13:17:25Z</time>
      </trkpt>
      <trkpt lat="44.41583" lon="4.20941">
        <ele>234.7</ele>
        <time>2016-09-26T13:17:38Z</time>
      </trkpt>
      <trkpt lat="44.41589" lon="4.20938">
        <ele>235.66</ele>
        <time>2016-09-26T13:17:51Z</time>
      </trkpt>
      <trkpt lat="44.41591" lon="4.20938">
        <ele>235.66</ele>
        <time>2016-09-26T13:17:59Z</time>
      </trkpt>
      <trkpt lat="44.41591" lon="4.20941">
        <ele>236.14</ele>
        <time>2016-09-26T13:18:02Z</time>
      </trkpt>
      <trkpt lat="44.41596" lon="4.20946">
        <ele>236.62</ele>
        <time>2016-09-26T13:18:14Z</time>
      </trkpt>
      <trkpt lat="44.41596" lon="4.20946">
        <ele>236.62</ele>
        <time>2016-09-26T13:18:24Z</time>
      </trkpt>
      <trkpt lat="44.41597" lon="4.2095">
        <ele>237.1</ele>
        <time>2016-09-26T13:18:36Z</time>
      </trkpt>
      <trkpt lat="44.41598" lon="4.20958">
        <ele>235.18</ele>
        <time>2016-09-26T13:18:49Z</time>
      </trkpt>
      <trkpt lat="44.41596" lon="4.20961">
        <ele>234.22</ele>
        <time>2016-09-26T13:19:02Z</time>
      </trkpt>
      <trkpt lat="44.41594" lon="4.20965">
        <ele>232.78</ele>
        <time>2016-09-26T13:19:14Z</time>
      </trkpt>
      <trkpt lat="44.4159" lon="4.20973">
        <ele>232.3</ele>
        <time>2016-09-26T13:19:27Z</time>
      </trkpt>
      <trkpt lat="44.4159" lon="4.20983">
        <ele>231.81</ele>
        <time>2016-09-26T13:19:39Z</time>
      </trkpt>
      <trkpt lat="44.41591" lon="4.20988">
        <ele>230.85</ele>
        <time>2016-09-26T13:19:51Z</time>
      </trkpt>
      <trkpt lat="44.41591" lon="4.20996">
        <ele>230.85</ele>
        <time>2016-09-26T13:20:05Z</time>
      </trkpt>
      <trkpt lat="44.41595" lon="4.20999">
        <ele>230.85</ele>
        <time>2016-09-26T13:20:19Z</time>
      </trkpt>
      <trkpt lat="44.41596" lon="4.21001">
        <ele>230.85</ele>
        <time>2016-09-26T13:20:33Z</time>
      </trkpt>
      <trkpt lat="44.41598" lon="4.21002">
        <ele>229.89</ele>
        <time>2016-09-26T13:20:48Z</time>
      </trkpt>
      <trkpt lat="44.416" lon="4.21001">
        <ele>230.37</ele>
        <time>2016-09-26T13:21:22Z</time>
      </trkpt>
      <trkpt lat="44.416" lon="4.21001">
        <ele>230.85</ele>
        <time>2016-09-26T13:21:36Z</time>
      </trkpt>
      <trkpt lat="44.416" lon="4.21002">
        <ele>230.85</ele>
        <time>2016-09-26T13:21:53Z</time>
      </trkpt>
      <trkpt lat="44.41601" lon="4.21001">
        <ele>230.85</ele>
        <time>2016-09-26T13:22:06Z</time>
      </trkpt>
      <trkpt lat="44.41606" lon="4.21004">
        <ele>231.33</ele>
        <time>2016-09-26T13:22:17Z</time>
      </trkpt>
      <trkpt lat="44.41613" lon="4.21003">
        <ele>231.81</ele>
        <time>2016-09-26T13:22:29Z</time>
      </trkpt>
      <trkpt lat="44.41617" lon="4.21004">
        <ele>231.81</ele>
        <time>2016-09-26T13:22:43Z</time>
      </trkpt>
      <trkpt lat="44.41617" lon="4.21003">
        <ele>231.81</ele>
        <time>2016-09-26T13:23:03Z</time>
      </trkpt>
      <trkpt lat="44.41619" lon="4.21001">
        <ele>231.81</ele>
        <time>2016-09-26T13:23:16Z</time>
      </trkpt>
      <trkpt lat="44.41619" lon="4.20999">
        <ele>231.81</ele>
        <time>2016-09-26T13:23:31Z</time>
      </trkpt>
      <trkpt lat="44.4162" lon="4.20998">
        <ele>231.81</ele>
        <time>2016-09-26T13:24:04Z</time>
      </trkpt>
      <trkpt lat="44.4162" lon="4.20997">
        <ele>232.3</ele>
        <time>2016-09-26T13:24:20Z</time>
      </trkpt>
      <trkpt lat="44.41618" lon="4.20997">
        <ele>232.3</ele>
        <time>2016-09-26T13:24:39Z</time>
      </trkpt>
      <trkpt lat="44.41618" lon="4.20997">
        <ele>232.3</ele>
        <time>2016-09-26T13:25:06Z</time>
      </trkpt>
      <trkpt lat="44.41618" lon="4.20996">
        <ele>232.3</ele>
        <time>2016-09-26T13:25:24Z</time>
      </trkpt>
      <trkpt lat="44.41618" lon="4.20997">
        <ele>231.81</ele>
        <time>2016-09-26T13:25:44Z</time>
      </trkpt>
      <trkpt lat="44.41619" lon="4.20998">
        <ele>231.81</ele>
        <time>2016-09-26T13:25:59Z</time>
      </trkpt>
      <trkpt lat="44.4162" lon="4.20998">
        <ele>232.3</ele>
        <time>2016-09-26T13:26:17Z</time>
      </trkpt>
      <trkpt lat="44.41622" lon="4.21">
        <ele>232.78</ele>
        <time>2016-09-26T13:26:26Z</time>
      </trkpt>
      <trkpt lat="44.41627" lon="4.21001">
        <ele>233.26</ele>
        <time>2016-09-26T13:26:40Z</time>
      </trkpt>
      <trkpt lat="44.4163" lon="4.21">
        <ele>233.74</ele>
        <time>2016-09-26T13:26:55Z</time>
      </trkpt>
      <trkpt lat="44.4163" lon="4.21">
        <ele>233.26</ele>
        <time>2016-09-26T13:27:07Z</time>
      </trkpt>
      <trkpt lat="44.41631" lon="4.21">
        <ele>234.22</ele>
        <time>2016-09-26T13:27:20Z</time>
      </trkpt>
      <trkpt lat="44.41631" lon="4.21">
        <ele>235.18</ele>
        <time>2016-09-26T13:27:38Z</time>
      </trkpt>
      <trkpt lat="44.41632" lon="4.21">
        <ele>234.7</ele>
        <time>2016-09-26T13:27:55Z</time>
      </trkpt>
      <trkpt lat="44.41632" lon="4.21">
        <ele>234.22</ele>
        <time>2016-09-26T13:28:15Z</time>
      </trkpt>
      <trkpt lat="44.41632" lon="4.21">
        <ele>234.7</ele>
        <time>2016-09-26T13:28:34Z</time>
      </trkpt>
      <trkpt lat="44.41631" lon="4.20998">
        <ele>234.22</ele>
        <time>2016-09-26T13:28:52Z</time>
      </trkpt>
      <trkpt lat="44.41631" lon="4.20996">
        <ele>234.22</ele>
        <time>2016-09-26T13:29:25Z</time>
      </trkpt>
      <trkpt lat="44.41632" lon="4.20997">
        <ele>234.7</ele>
        <time>2016-09-26T13:29:43Z</time>
      </trkpt>
      <trkpt lat="44.41632" lon="4.20997">
        <ele>234.7</ele>
        <time>2016-09-26T13:30:04Z</time>
      </trkpt>
      <trkpt lat="44.41633" lon="4.20998">
        <ele>233.26</ele>
        <time>2016-09-26T13:30:17Z</time>
      </trkpt>
      <trkpt lat="44.41636" lon="4.21">
        <ele>234.22</ele>
        <time>2016-09-26T13:30:28Z</time>
      </trkpt>
      <trkpt lat="44.41638" lon="4.20999">
        <ele>235.66</ele>
        <time>2016-09-26T13:30:41Z</time>
      </trkpt>
      <trkpt lat="44.4164" lon="4.20998">
        <ele>236.14</ele>
        <time>2016-09-26T13:30:56Z</time>
      </trkpt>
      <trkpt lat="44.41641" lon="4.20999">
        <ele>236.62</ele>
        <time>2016-09-26T13:31:18Z</time>
      </trkpt>
      <trkpt lat="44.41645" lon="4.21001">
        <ele>238.06</ele>
        <time>2016-09-26T13:31:33Z</time>
      </trkpt>
      <trkpt lat="44.41644" lon="4.21001">
        <ele>238.54</ele>
        <time>2016-09-26T13:31:45Z</time>
      </trkpt>
      <trkpt lat="44.41644" lon="4.21002">
        <ele>238.54</ele>
        <time>2016-09-26T13:32:06Z</time>
      </trkpt>
      <trkpt lat="44.41645" lon="4.21002">
        <ele>238.54</ele>
        <time>2016-09-26T13:32:18Z</time>
      </trkpt>
      <trkpt lat="44.41646" lon="4.21002">
        <ele>238.06</ele>
        <time>2016-09-26T13:32:38Z</time>
      </trkpt>
      <trkpt lat="44.41644" lon="4.21003">
        <ele>239.51</ele>
        <time>2016-09-26T13:32:58Z</time>
      </trkpt>
      <trkpt lat="44.41644" lon="4.21002">
        <ele>239.99</ele>
        <time>2016-09-26T13:33:14Z</time>
      </trkpt>
      <trkpt lat="44.41644" lon="4.21004">
        <ele>240.95</ele>
        <time>2016-09-26T13:33:28Z</time>
      </trkpt>
      <trkpt lat="44.4165" lon="4.21017">
        <ele>242.39</ele>
        <time>2016-09-26T13:33:43Z</time>
      </trkpt>
      <trkpt lat="44.41658" lon="4.21017">
        <ele>242.87</ele>
        <time>2016-09-26T13:33:54Z</time>
      </trkpt>
      <trkpt lat="44.41662" lon="4.21019">
        <ele>243.35</ele>
        <time>2016-09-26T13:34:05Z</time>
      </trkpt>
      <trkpt lat="44.41668" lon="4.21019">
        <ele>244.31</ele>
        <time>2016-09-26T13:34:16Z</time>
      </trkpt>
      <trkpt lat="44.41673" lon="4.21018">
        <ele>244.79</ele>
        <time>2016-09-26T13:34:24Z</time>
      </trkpt>
      <trkpt lat="44.41682" lon="4.21014">
        <ele>246.23</ele>
        <time>2016-09-26T13:34:38Z</time>
      </trkpt>
      <trkpt lat="44.41684" lon="4.21014">
        <ele>246.23</ele>
        <time>2016-09-26T13:34:40Z</time>
      </trkpt>
      <trkpt lat="44.41691" lon="4.21016">
        <ele>247.2</ele>
        <time>2016-09-26T13:34:50Z</time>
      </trkpt>
      <trkpt lat="44.41695" lon="4.21018">
        <ele>247.68</ele>
        <time>2016-09-26T13:35:03Z</time>
      </trkpt>
      <trkpt lat="44.41695" lon="4.21018">
        <ele>247.2</ele>
        <time>2016-09-26T13:35:17Z</time>
      </trkpt>
      <trkpt lat="44.41693" lon="4.2102">
        <ele>247.2</ele>
        <time>2016-09-26T13:35:30Z</time>
      </trkpt>
      <trkpt lat="44.41696" lon="4.21016">
        <ele>247.68</ele>
        <time>2016-09-26T13:35:41Z</time>
      </trkpt>
      <trkpt lat="44.41696" lon="4.21016">
        <ele>247.68</ele>
        <time>2016-09-26T13:35:59Z</time>
      </trkpt>
      <trkpt lat="44.41697" lon="4.21023">
        <ele>247.68</ele>
        <time>2016-09-26T13:36:12Z</time>
      </trkpt>
      <trkpt lat="44.41697" lon="4.21024">
        <ele>247.2</ele>
        <time>2016-09-26T13:36:30Z</time>
      </trkpt>
      <trkpt lat="44.41697" lon="4.21025">
        <ele>247.2</ele>
        <time>2016-09-26T13:36:48Z</time>
      </trkpt>
      <trkpt lat="44.41698" lon="4.21026">
        <ele>246.72</ele>
        <time>2016-09-26T13:37:01Z</time>
      </trkpt>
      <trkpt lat="44.41698" lon="4.21027">
        <ele>245.27</ele>
        <time>2016-09-26T13:37:17Z</time>
      </trkpt>
      <trkpt lat="44.41699" lon="4.21028">
        <ele>244.79</ele>
        <time>2016-09-26T13:37:33Z</time>
      </trkpt>
      <trkpt lat="44.417" lon="4.21031">
        <ele>243.83</ele>
        <time>2016-09-26T13:37:47Z</time>
      </trkpt>
      <trkpt lat="44.41702" lon="4.21034">
        <ele>243.83</ele>
        <time>2016-09-26T13:37:58Z</time>
      </trkpt>
      <trkpt lat="44.41703" lon="4.21033">
        <ele>244.31</ele>
        <time>2016-09-26T13:38:12Z</time>
      </trkpt>
      <trkpt lat="44.41704" lon="4.21034">
        <ele>244.31</ele>
        <time>2016-09-26T13:38:23Z</time>
      </trkpt>
      <trkpt lat="44.41706" lon="4.21035">
        <ele>243.83</ele>
        <time>2016-09-26T13:38:39Z</time>
      </trkpt>
      <trkpt lat="44.4171" lon="4.21037">
        <ele>243.35</ele>
        <time>2016-09-26T13:38:51Z</time>
      </trkpt>
      <trkpt lat="44.41713" lon="4.21037">
        <ele>243.35</ele>
        <time>2016-09-26T13:39:06Z</time>
      </trkpt>
      <trkpt lat="44.41715" lon="4.21039">
        <ele>243.35</ele>
        <time>2016-09-26T13:39:18Z</time>
      </trkpt>
      <trkpt lat="44.41719" lon="4.21045">
        <ele>244.31</ele>
        <time>2016-09-26T13:39:31Z</time>
      </trkpt>
      <trkpt lat="44.41721" lon="4.21046">
        <ele>243.83</ele>
        <time>2016-09-26T13:39:43Z</time>
      </trkpt>
      <trkpt lat="44.41722" lon="4.2105">
        <ele>244.31</ele>
        <time>2016-09-26T13:39:57Z</time>
      </trkpt>
      <trkpt lat="44.41724" lon="4.21051">
        <ele>243.83</ele>
        <time>2016-09-26T13:40:10Z</time>
      </trkpt>
      <trkpt lat="44.41725" lon="4.21052">
        <ele>244.31</ele>
        <time>2016-09-26T13:40:33Z</time>
      </trkpt>
      <trkpt lat="44.41725" lon="4.21051">
        <ele>244.31</ele>
        <time>2016-09-26T13:40:57Z</time>
      </trkpt>
      <trkpt lat="44.4173" lon="4.21054">
        <ele>243.83</ele>
        <time>2016-09-26T13:41:10Z</time>
      </trkpt>
      <trkpt lat="44.41731" lon="4.21054">
        <ele>244.31</ele>
        <time>2016-09-26T13:41:23Z</time>
      </trkpt>
      <trkpt lat="44.41731" lon="4.21054">
        <ele>243.83</ele>
        <time>2016-09-26T13:41:40Z</time>
      </trkpt>
      <trkpt lat="44.41731" lon="4.21054">
        <ele>243.83</ele>
        <time>2016-09-26T13:41:58Z</time>
      </trkpt>
      <trkpt lat="44.41732" lon="4.21055">
        <ele>242.39</ele>
        <time>2016-09-26T13:42:30Z</time>
      </trkpt>
      <trkpt lat="44.41732" lon="4.21055">
        <ele>243.83</ele>
        <time>2016-09-26T13:43:03Z</time>
      </trkpt>
      <trkpt lat="44.41732" lon="4.21055">
        <ele>243.35</ele>
        <time>2016-09-26T13:43:33Z</time>
      </trkpt>
      <trkpt lat="44.41736" lon="4.21054">
        <ele>243.35</ele>
        <time>2016-09-26T13:43:46Z</time>
      </trkpt>
      <trkpt lat="44.41739" lon="4.21049">
        <ele>243.35</ele>
        <time>2016-09-26T13:44:00Z</time>
      </trkpt>
      <trkpt lat="44.41738" lon="4.21043">
        <ele>244.79</ele>
        <time>2016-09-26T13:44:16Z</time>
      </trkpt>
      <trkpt lat="44.41736" lon="4.21042">
        <ele>244.79</ele>
        <time>2016-09-26T13:44:30Z</time>
      </trkpt>
      <trkpt lat="44.41735" lon="4.2104">
        <ele>244.31</ele>
        <time>2016-09-26T13:44:49Z</time>
      </trkpt>
      <trkpt lat="44.41735" lon="4.21038">
        <ele>244.31</ele>
        <time>2016-09-26T13:45:16Z</time>
      </trkpt>
      <trkpt lat="44.41735" lon="4.21039">
        <ele>243.83</ele>
        <time>2016-09-26T13:45:35Z</time>
      </trkpt>
      <trkpt lat="44.41733" lon="4.21035">
        <ele>242.87</ele>
        <time>2016-09-26T13:45:51Z</time>
      </trkpt>
      <trkpt lat="44.41729" lon="4.21032">
        <ele>243.35</ele>
        <time>2016-09-26T13:46:07Z</time>
      </trkpt>
      <trkpt lat="44.41727" lon="4.21029">
        <ele>242.87</ele>
        <time>2016-09-26T13:46:10Z</time>
      </trkpt>
      <trkpt lat="44.4172" lon="4.21022">
        <ele>243.35</ele>
        <time>2016-09-26T13:46:22Z</time>
      </trkpt>
      <trkpt lat="44.41718" lon="4.21023">
        <ele>243.35</ele>
        <time>2016-09-26T13:46:36Z</time>
      </trkpt>
      <trkpt lat="44.41711" lon="4.21021">
        <ele>243.83</ele>
        <time>2016-09-26T13:46:50Z</time>
      </trkpt>
      <trkpt lat="44.41708" lon="4.21027">
        <ele>242.87</ele>
        <time>2016-09-26T13:47:01Z</time>
      </trkpt>
      <trkpt lat="44.4171" lon="4.21035">
        <ele>242.39</ele>
        <time>2016-09-26T13:47:12Z</time>
      </trkpt>
      <trkpt lat="44.41715" lon="4.2104">
        <ele>242.39</ele>
        <time>2016-09-26T13:47:23Z</time>
      </trkpt>
      <trkpt lat="44.41721" lon="4.21045">
        <ele>243.35</ele>
        <time>2016-09-26T13:47:35Z</time>
      </trkpt>
      <trkpt lat="44.41722" lon="4.21047">
        <ele>243.35</ele>
        <time>2016-09-26T13:47:49Z</time>
      </trkpt>
      <trkpt lat="44.41723" lon="4.21048">
        <ele>243.35</ele>
        <time>2016-09-26T13:48:06Z</time>
      </trkpt>
      <trkpt lat="44.41723" lon="4.21051">
        <ele>242.39</ele>
        <time>2016-09-26T13:48:17Z</time>
      </trkpt>
      <trkpt lat="44.41722" lon="4.21054">
        <ele>241.43</ele>
        <time>2016-09-26T13:48:26Z</time>
      </trkpt>
      <trkpt lat="44.41722" lon="4.21057">
        <ele>241.43</ele>
        <time>2016-09-26T13:48:39Z</time>
      </trkpt>
      <trkpt lat="44.41722" lon="4.21059">
        <ele>240.47</ele>
        <time>2016-09-26T13:48:52Z</time>
      </trkpt>
      <trkpt lat="44.41721" lon="4.21064">
        <ele>239.51</ele>
        <time>2016-09-26T13:49:06Z</time>
      </trkpt>
      <trkpt lat="44.4172" lon="4.21074">
        <ele>239.02</ele>
        <time>2016-09-26T13:49:19Z</time>
      </trkpt>
      <trkpt lat="44.41721" lon="4.21081">
        <ele>238.54</ele>
        <time>2016-09-26T13:49:33Z</time>
      </trkpt>
      <trkpt lat="44.41721" lon="4.21083">
        <ele>237.58</ele>
        <time>2016-09-26T13:49:48Z</time>
      </trkpt>
      <trkpt lat="44.41718" lon="4.21093">
        <ele>237.1</ele>
        <time>2016-09-26T13:50:02Z</time>
      </trkpt>
      <trkpt lat="44.41714" lon="4.21099">
        <ele>235.66</ele>
        <time>2016-09-26T13:50:13Z</time>
      </trkpt>
      <trkpt lat="44.41706" lon="4.21113">
        <ele>235.66</ele>
        <time>2016-09-26T13:50:28Z</time>
      </trkpt>
      <trkpt lat="44.41704" lon="4.21126">
        <ele>236.14</ele>
        <time>2016-09-26T13:50:40Z</time>
      </trkpt>
      <trkpt lat="44.41705" lon="4.21137">
        <ele>236.14</ele>
        <time>2016-09-26T13:50:51Z</time>
      </trkpt>
      <trkpt lat="44.41706" lon="4.2114">
        <ele>236.14</ele>
        <time>2016-09-26T13:51:13Z</time>
      </trkpt>
      <trkpt lat="44.41706" lon="4.21141">
        <ele>236.14</ele>
        <time>2016-09-26T13:51:42Z</time>
      </trkpt>
      <trkpt lat="44.41706" lon="4.21144">
        <ele>236.14</ele>
        <time>2016-09-26T13:52:03Z</time>
      </trkpt>
      <trkpt lat="44.41705" lon="4.21143">
        <ele>235.18</ele>
        <time>2016-09-26T13:52:18Z</time>
      </trkpt>
      <trkpt lat="44.41706" lon="4.21143">
        <ele>235.18</ele>
        <time>2016-09-26T13:52:51Z</time>
      </trkpt>
      <trkpt lat="44.41706" lon="4.21144">
        <ele>236.14</ele>
        <time>2016-09-26T13:53:05Z</time>
      </trkpt>
      <trkpt lat="44.41706" lon="4.21144">
        <ele>236.14</ele>
        <time>2016-09-26T13:53:06Z</time>
      </trkpt>
      <trkpt lat="44.41715" lon="4.21147">
        <ele>236.62</ele>
        <time>2016-09-26T13:53:19Z</time>
      </trkpt>
      <trkpt lat="44.41718" lon="4.21148">
        <ele>236.62</ele>
        <time>2016-09-26T13:53:32Z</time>
      </trkpt>
      <trkpt lat="44.41721" lon="4.2115">
        <ele>237.1</ele>
        <time>2016-09-26T13:53:49Z</time>
      </trkpt>
      <trkpt lat="44.41723" lon="4.21151">
        <ele>237.1</ele>
        <time>2016-09-26T13:54:11Z</time>
      </trkpt>
      <trkpt lat="44.41722" lon="4.21151">
        <ele>237.1</ele>
        <time>2016-09-26T13:54:37Z</time>
      </trkpt>
      <trkpt lat="44.41721" lon="4.21158">
        <ele>238.06</ele>
        <time>2016-09-26T13:54:51Z</time>
      </trkpt>
      <trkpt lat="44.41724" lon="4.21162">
        <ele>239.02</ele>
        <time>2016-09-26T13:55:01Z</time>
      </trkpt>
      <trkpt lat="44.41727" lon="4.21165">
        <ele>238.54</ele>
        <time>2016-09-26T13:55:14Z</time>
      </trkpt>
      <trkpt lat="44.41726" lon="4.21164">
        <ele>238.54</ele>
        <time>2016-09-26T13:55:26Z</time>
      </trkpt>
      <trkpt lat="44.41724" lon="4.21162">
        <ele>237.58</ele>
        <time>2016-09-26T13:55:37Z</time>
      </trkpt>
      <trkpt lat="44.41725" lon="4.21155">
        <ele>237.58</ele>
        <time>2016-09-26T13:55:51Z</time>
      </trkpt>
      <trkpt lat="44.41722" lon="4.21157">
        <ele>237.58</ele>
        <time>2016-09-26T13:56:02Z</time>
      </trkpt>
      <trkpt lat="44.4172" lon="4.2116">
        <ele>238.06</ele>
        <time>2016-09-26T13:56:15Z</time>
      </trkpt>
      <trkpt lat="44.41727" lon="4.21166">
        <ele>239.02</ele>
        <time>2016-09-26T13:56:27Z</time>
      </trkpt>
      <trkpt lat="44.41732" lon="4.21163">
        <ele>237.58</ele>
        <time>2016-09-26T13:56:39Z</time>
      </trkpt>
      <trkpt lat="44.41733" lon="4.21163">
        <ele>238.06</ele>
        <time>2016-09-26T13:56:58Z</time>
      </trkpt>
      <trkpt lat="44.41736" lon="4.21162">
        <ele>238.06</ele>
        <time>2016-09-26T13:57:10Z</time>
      </trkpt>
      <trkpt lat="44.41745" lon="4.21163">
        <ele>239.02</ele>
        <time>2016-09-26T13:57:22Z</time>
      </trkpt>
      <trkpt lat="44.41749" lon="4.21165">
        <ele>239.51</ele>
        <time>2016-09-26T13:57:34Z</time>
      </trkpt>
      <trkpt lat="44.41756" lon="4.2117">
        <ele>240.47</ele>
        <time>2016-09-26T13:57:47Z</time>
      </trkpt>
      <trkpt lat="44.41755" lon="4.21175">
        <ele>240.95</ele>
        <time>2016-09-26T13:58:02Z</time>
      </trkpt>
      <trkpt lat="44.41754" lon="4.21181">
        <ele>241.43</ele>
        <time>2016-09-26T13:58:15Z</time>
      </trkpt>
      <trkpt lat="44.41746" lon="4.21189">
        <ele>241.91</ele>
        <time>2016-09-26T13:58:27Z</time>
      </trkpt>
      <trkpt lat="44.41745" lon="4.21192">
        <ele>242.39</ele>
        <time>2016-09-26T13:58:39Z</time>
      </trkpt>
      <trkpt lat="44.41742" lon="4.21198">
        <ele>243.35</ele>
        <time>2016-09-26T13:58:52Z</time>
      </trkpt>
      <trkpt lat="44.41739" lon="4.21205">
        <ele>244.79</ele>
        <time>2016-09-26T13:59:06Z</time>
      </trkpt>
      <trkpt lat="44.41733" lon="4.21211">
        <ele>245.75</ele>
        <time>2016-09-26T13:59:21Z</time>
      </trkpt>
      <trkpt lat="44.41729" lon="4.21213">
        <ele>246.23</ele>
        <time>2016-09-26T13:59:32Z</time>
      </trkpt>
      <trkpt lat="44.41724" lon="4.21233">
        <ele>247.2</ele>
        <time>2016-09-26T13:59:45Z</time>
      </trkpt>
      <trkpt lat="44.4172" lon="4.21249">
        <ele>248.16</ele>
        <time>2016-09-26T13:59:59Z</time>
      </trkpt>
      <trkpt lat="44.4172" lon="4.21252">
        <ele>248.64</ele>
        <time>2016-09-26T14:00:03Z</time>
      </trkpt>
      <trkpt lat="44.41718" lon="4.21262">
        <ele>249.12</ele>
        <time>2016-09-26T14:00:15Z</time>
      </trkpt>
      <trkpt lat="44.41714" lon="4.21267">
        <ele>250.56</ele>
        <time>2016-09-26T14:00:27Z</time>
      </trkpt>
      <trkpt lat="44.41712" lon="4.21277">
        <ele>251.52</ele>
        <time>2016-09-26T14:00:39Z</time>
      </trkpt>
      <trkpt lat="44.4171" lon="4.2129">
        <ele>252.96</ele>
        <time>2016-09-26T14:00:52Z</time>
      </trkpt>
      <trkpt lat="44.41716" lon="4.21301">
        <ele>253.93</ele>
        <time>2016-09-26T14:01:06Z</time>
      </trkpt>
      <trkpt lat="44.41723" lon="4.21309">
        <ele>254.41</ele>
        <time>2016-09-26T14:01:19Z</time>
      </trkpt>
      <trkpt lat="44.41728" lon="4.21319">
        <ele>255.37</ele>
        <time>2016-09-26T14:01:32Z</time>
      </trkpt>
      <trkpt lat="44.41732" lon="4.21327">
        <ele>256.81</ele>
        <time>2016-09-26T14:01:45Z</time>
      </trkpt>
      <trkpt lat="44.41735" lon="4.21338">
        <ele>257.77</ele>
        <time>2016-09-26T14:02:00Z</time>
      </trkpt>
      <trkpt lat="44.41735" lon="4.21347">
        <ele>258.25</ele>
        <time>2016-09-26T14:02:13Z</time>
      </trkpt>
      <trkpt lat="44.41736" lon="4.21351">
        <ele>258.25</ele>
        <time>2016-09-26T14:02:26Z</time>
      </trkpt>
      <trkpt lat="44.41737" lon="4.21354">
        <ele>258.73</ele>
        <time>2016-09-26T14:02:39Z</time>
      </trkpt>
      <trkpt lat="44.41736" lon="4.21352">
        <ele>258.73</ele>
        <time>2016-09-26T14:02:53Z</time>
      </trkpt>
      <trkpt lat="44.41732" lon="4.21354">
        <ele>258.73</ele>
        <time>2016-09-26T14:03:15Z</time>
      </trkpt>
      <trkpt lat="44.41733" lon="4.21355">
        <ele>257.77</ele>
        <time>2016-09-26T14:03:30Z</time>
      </trkpt>
      <trkpt lat="44.41733" lon="4.21355">
        <ele>257.77</ele>
        <time>2016-09-26T14:04:01Z</time>
      </trkpt>
      <trkpt lat="44.41733" lon="4.21356">
        <ele>257.77</ele>
        <time>2016-09-26T14:04:23Z</time>
      </trkpt>
      <trkpt lat="44.41733" lon="4.21357">
        <ele>257.29</ele>
        <time>2016-09-26T14:04:36Z</time>
      </trkpt>
      <trkpt lat="44.41734" lon="4.21356">
        <ele>257.29</ele>
        <time>2016-09-26T14:05:09Z</time>
      </trkpt>
      <trkpt lat="44.41734" lon="4.21356">
        <ele>258.25</ele>
        <time>2016-09-26T14:05:27Z</time>
      </trkpt>
      <trkpt lat="44.41733" lon="4.21357">
        <ele>259.21</ele>
        <time>2016-09-26T14:05:46Z</time>
      </trkpt>
      <trkpt lat="44.41732" lon="4.21356">
        <ele>258.25</ele>
        <time>2016-09-26T14:06:03Z</time>
      </trkpt>
      <trkpt lat="44.41732" lon="4.21357">
        <ele>258.25</ele>
        <time>2016-09-26T14:06:30Z</time>
      </trkpt>
      <trkpt lat="44.41732" lon="4.21357">
        <ele>258.25</ele>
        <time>2016-09-26T14:06:50Z</time>
      </trkpt>
      <trkpt lat="44.41733" lon="4.21358">
        <ele>258.25</ele>
        <time>2016-09-26T14:07:01Z</time>
      </trkpt>
      <trkpt lat="44.41735" lon="4.21361">
        <ele>258.25</ele>
        <time>2016-09-26T14:07:17Z</time>
      </trkpt>
      <trkpt lat="44.41737" lon="4.21365">
        <ele>258.25</ele>
        <time>2016-09-26T14:07:33Z</time>
      </trkpt>
      <trkpt lat="44.41739" lon="4.2137">
        <ele>258.25</ele>
        <time>2016-09-26T14:07:45Z</time>
      </trkpt>
      <trkpt lat="44.41742" lon="4.2138">
        <ele>258.25</ele>
        <time>2016-09-26T14:07:59Z</time>
      </trkpt>
      <trkpt lat="44.41745" lon="4.21386">
        <ele>257.77</ele>
        <time>2016-09-26T14:08:13Z</time>
      </trkpt>
      <trkpt lat="44.41746" lon="4.21387">
        <ele>257.77</ele>
        <time>2016-09-26T14:08:35Z</time>
      </trkpt>
      <trkpt lat="44.41748" lon="4.21391">
        <ele>257.29</ele>
        <time>2016-09-26T14:08:48Z</time>
      </trkpt>
      <trkpt lat="44.4175" lon="4.21398">
        <ele>257.29</ele>
        <time>2016-09-26T14:09:02Z</time>
      </trkpt>
      <trkpt lat="44.41751" lon="4.21404">
        <ele>256.81</ele>
        <time>2016-09-26T14:09:15Z</time>
      </trkpt>
      <trkpt lat="44.41753" lon="4.2141">
        <ele>256.81</ele>
        <time>2016-09-26T14:09:30Z</time>
      </trkpt>
      <trkpt lat="44.41754" lon="4.21419">
        <ele>257.29</ele>
        <time>2016-09-26T14:09:47Z</time>
      </trkpt>
      <trkpt lat="44.4176" lon="4.21436">
        <ele>255.85</ele>
        <time>2016-09-26T14:10:03Z</time>
      </trkpt>
      <trkpt lat="44.41763" lon="4.21447">
        <ele>255.37</ele>
        <time>2016-09-26T14:10:15Z</time>
      </trkpt>
      <trkpt lat="44.41771" lon="4.21465">
        <ele>254.89</ele>
        <time>2016-09-26T14:10:30Z</time>
      </trkpt>
      <trkpt lat="44.41778" lon="4.21481">
        <ele>255.37</ele>
        <time>2016-09-26T14:10:44Z</time>
      </trkpt>
      <trkpt lat="44.41784" lon="4.21488">
        <ele>254.89</ele>
        <time>2016-09-26T14:10:56Z</time>
      </trkpt>
      <trkpt lat="44.41789" lon="4.21493">
        <ele>255.37</ele>
        <time>2016-09-26T14:11:08Z</time>
      </trkpt>
      <trkpt lat="44.41794" lon="4.215">
        <ele>255.85</ele>
        <time>2016-09-26T14:11:21Z</time>
      </trkpt>
      <trkpt lat="44.41796" lon="4.21503">
        <ele>255.37</ele>
        <time>2016-09-26T14:11:37Z</time>
      </trkpt>
      <trkpt lat="44.41803" lon="4.21508">
        <ele>255.37</ele>
        <time>2016-09-26T14:11:52Z</time>
      </trkpt>
      <trkpt lat="44.41806" lon="4.2151">
        <ele>255.37</ele>
        <time>2016-09-26T14:12:04Z</time>
      </trkpt>
      <trkpt lat="44.41808" lon="4.21509">
        <ele>255.37</ele>
        <time>2016-09-26T14:12:26Z</time>
      </trkpt>
      <trkpt lat="44.4181" lon="4.21508">
        <ele>255.37</ele>
        <time>2016-09-26T14:12:44Z</time>
      </trkpt>
      <trkpt lat="44.41811" lon="4.2151">
        <ele>254.89</ele>
        <time>2016-09-26T14:13:04Z</time>
      </trkpt>
      <trkpt lat="44.41811" lon="4.21511">
        <ele>255.37</ele>
        <time>2016-09-26T14:13:28Z</time>
      </trkpt>
      <trkpt lat="44.41812" lon="4.21513">
        <ele>255.85</ele>
        <time>2016-09-26T14:13:47Z</time>
      </trkpt>
      <trkpt lat="44.41813" lon="4.21512">
        <ele>254.89</ele>
        <time>2016-09-26T14:14:08Z</time>
      </trkpt>
      <trkpt lat="44.41818" lon="4.21514">
        <ele>254.89</ele>
        <time>2016-09-26T14:14:21Z</time>
      </trkpt>
      <trkpt lat="44.4182" lon="4.21514">
        <ele>254.89</ele>
        <time>2016-09-26T14:14:34Z</time>
      </trkpt>
      <trkpt lat="44.41821" lon="4.21516">
        <ele>255.37</ele>
        <time>2016-09-26T14:14:47Z</time>
      </trkpt>
      <trkpt lat="44.41823" lon="4.21524">
        <ele>255.37</ele>
        <time>2016-09-26T14:15:01Z</time>
      </trkpt>
      <trkpt lat="44.41825" lon="4.21528">
        <ele>255.37</ele>
        <time>2016-09-26T14:15:14Z</time>
      </trkpt>
      <trkpt lat="44.41828" lon="4.2154">
        <ele>254.41</ele>
        <time>2016-09-26T14:15:27Z</time>
      </trkpt>
      <trkpt lat="44.41829" lon="4.21547">
        <ele>254.41</ele>
        <time>2016-09-26T14:15:34Z</time>
      </trkpt>
      <trkpt lat="44.41828" lon="4.21559">
        <ele>253.93</ele>
        <time>2016-09-26T14:15:48Z</time>
      </trkpt>
      <trkpt lat="44.41825" lon="4.21575">
        <ele>253.44</ele>
        <time>2016-09-26T14:16:03Z</time>
      </trkpt>
      <trkpt lat="44.4182" lon="4.2159">
        <ele>252.48</ele>
        <time>2016-09-26T14:16:18Z</time>
      </trkpt>
      <trkpt lat="44.4182" lon="4.21591">
        <ele>252.48</ele>
        <time>2016-09-26T14:16:19Z</time>
      </trkpt>
      <trkpt lat="44.41815" lon="4.21604">
        <ele>251.52</ele>
        <time>2016-09-26T14:16:30Z</time>
      </trkpt>
      <trkpt lat="44.41809" lon="4.21619">
        <ele>249.12</ele>
        <time>2016-09-26T14:16:46Z</time>
      </trkpt>
      <trkpt lat="44.418" lon="4.2164">
        <ele>247.68</ele>
        <time>2016-09-26T14:17:02Z</time>
      </trkpt>
      <trkpt lat="44.41796" lon="4.21653">
        <ele>246.23</ele>
        <time>2016-09-26T14:17:16Z</time>
      </trkpt>
      <trkpt lat="44.4179" lon="4.21664">
        <ele>245.27</ele>
        <time>2016-09-26T14:17:28Z</time>
      </trkpt>
      <trkpt lat="44.41783" lon="4.21676">
        <ele>243.83</ele>
        <time>2016-09-26T14:17:42Z</time>
      </trkpt>
      <trkpt lat="44.4178" lon="4.21696">
        <ele>241.43</ele>
        <time>2016-09-26T14:17:57Z</time>
      </trkpt>
      <trkpt lat="44.41782" lon="4.21712">
        <ele>239.51</ele>
        <time>2016-09-26T14:18:11Z</time>
      </trkpt>
      <trkpt lat="44.41785" lon="4.21725">
        <ele>237.58</ele>
        <time>2016-09-26T14:18:24Z</time>
      </trkpt>
      <trkpt lat="44.41786" lon="4.21736">
        <ele>236.14</ele>
        <time>2016-09-26T14:18:38Z</time>
      </trkpt>
      <trkpt lat="44.41788" lon="4.21745">
        <ele>235.66</ele>
        <time>2016-09-26T14:18:50Z</time>
      </trkpt>
      <trkpt lat="44.4179" lon="4.21755">
        <ele>234.22</ele>
        <time>2016-09-26T14:19:04Z</time>
      </trkpt>
      <trkpt lat="44.41793" lon="4.21764">
        <ele>233.26</ele>
        <time>2016-09-26T14:19:17Z</time>
      </trkpt>
      <trkpt lat="44.41801" lon="4.21772">
        <ele>231.81</ele>
        <time>2016-09-26T14:19:30Z</time>
      </trkpt>
      <trkpt lat="44.4181" lon="4.21783">
        <ele>231.33</ele>
        <time>2016-09-26T14:19:42Z</time>
      </trkpt>
      <trkpt lat="44.41814" lon="4.21787">
        <ele>229.89</ele>
        <time>2016-09-26T14:19:55Z</time>
      </trkpt>
      <trkpt lat="44.41818" lon="4.2179">
        <ele>229.89</ele>
        <time>2016-09-26T14:20:07Z</time>
      </trkpt>
      <trkpt lat="44.41823" lon="4.21789">
        <ele>229.41</ele>
        <time>2016-09-26T14:20:13Z</time>
      </trkpt>
      <trkpt lat="44.41824" lon="4.21787">
        <ele>229.41</ele>
        <time>2016-09-26T14:20:24Z</time>
      </trkpt>
      <trkpt lat="44.41826" lon="4.21791">
        <ele>228.93</ele>
        <time>2016-09-26T14:20:36Z</time>
      </trkpt>
      <trkpt lat="44.41826" lon="4.2179">
        <ele>229.41</ele>
        <time>2016-09-26T14:20:55Z</time>
      </trkpt>
      <trkpt lat="44.41826" lon="4.21789">
        <ele>229.41</ele>
        <time>2016-09-26T14:20:57Z</time>
      </trkpt>
      <trkpt lat="44.41825" lon="4.21787">
        <ele>229.41</ele>
        <time>2016-09-26T14:21:12Z</time>
      </trkpt>
      <trkpt lat="44.41826" lon="4.21788">
        <ele>229.41</ele>
        <time>2016-09-26T14:21:34Z</time>
      </trkpt>
      <trkpt lat="44.41826" lon="4.2179">
        <ele>229.41</ele>
        <time>2016-09-26T14:21:45Z</time>
      </trkpt>
      <trkpt lat="44.41826" lon="4.2179">
        <ele>230.37</ele>
        <time>2016-09-26T14:22:03Z</time>
      </trkpt>
      <trkpt lat="44.41826" lon="4.21789">
        <ele>229.41</ele>
        <time>2016-09-26T14:22:35Z</time>
      </trkpt>
    </trkseg>
  </trk>
</gpx>